<?xml version="1.0" encoding="UTF-8" standalone="no" ?>
<gpx xmlns="http://www.topografix.com/GPX/1/1" xmlns:xsi="http://www.w3.org/2001/XMLSchema-instance" xsi:schemaLocation="http://www.topografix.com/GPX/1/1 http://www.topografix.com/GPX/1/1/gpx.xsd" version="1.1" creator="VisuGPX - https://www.visugpx.com">
  <metadata>
    <name>R 057 Marais de la Guittière</name>
  </metadata>
  <trk>
    <name><![CDATA[R 057 Marais de la Guittière_1]]></name>
    <trkseg>
      <trkpt lat="46.43244" lon="-1.63646">
        <ele>42.807677</ele>
        <time>2022-10-18T14:20:15.185Z</time>
      </trkpt>
      <trkpt lat="46.43243" lon="-1.63646">
        <ele>42.807677</ele>
        <time>2022-10-18T14:21:26.727Z</time>
        <extensions>
          <visugpx:TrkExtension xmlns:visugpx="https://www.visugpx.com/editgpx/">
            <visugpx:node>1</visugpx:node>
            </visugpx:TrkExtension>
        </extensions>
      </trkpt>
      <trkpt lat="46.43234" lon="-1.63644">
        <ele>3.4</ele>
      </trkpt>
      <trkpt lat="46.43234" lon="-1.63693">
        <ele>3.4</ele>
      </trkpt>
      <trkpt lat="46.43241" lon="-1.63722">
        <ele>3.7</ele>
        <extensions>
          <visugpx:TrkExtension xmlns:visugpx="https://www.visugpx.com/editgpx/">
            <visugpx:node>2</visugpx:node>
            </visugpx:TrkExtension>
        </extensions>
      </trkpt>
      <trkpt lat="46.43241" lon="-1.63723">
        <ele>40.38809</ele>
        <time>2022-10-18T12:25:04.160Z</time>
      </trkpt>
      <trkpt lat="46.43247" lon="-1.63733">
        <ele>40.38809</ele>
        <time>2022-10-18T12:25:14.250Z</time>
      </trkpt>
      <trkpt lat="46.43254" lon="-1.63742">
        <ele>40.38809</ele>
        <time>2022-10-18T12:25:25.241Z</time>
      </trkpt>
      <trkpt lat="46.43262" lon="-1.6375">
        <ele>40.38809</ele>
        <time>2022-10-18T12:25:34.282Z</time>
      </trkpt>
      <trkpt lat="46.43269" lon="-1.63759">
        <ele>40.38809</ele>
        <time>2022-10-18T12:25:42.277Z</time>
      </trkpt>
      <trkpt lat="46.43275" lon="-1.6377">
        <ele>40.38809</ele>
        <time>2022-10-18T12:25:50.274Z</time>
      </trkpt>
      <trkpt lat="46.4328" lon="-1.63781">
        <ele>40.38809</ele>
        <time>2022-10-18T12:25:59.227Z</time>
      </trkpt>
      <trkpt lat="46.43287" lon="-1.6379">
        <ele>40.38809</ele>
        <time>2022-10-18T12:26:09.255Z</time>
      </trkpt>
      <trkpt lat="46.43294" lon="-1.63801">
        <ele>40.38809</ele>
        <time>2022-10-18T12:26:18.255Z</time>
      </trkpt>
      <trkpt lat="46.43301" lon="-1.63809">
        <ele>40.52441</ele>
        <time>2022-10-18T12:26:27.264Z</time>
      </trkpt>
      <trkpt lat="46.43308" lon="-1.63819">
        <ele>40.778494</ele>
        <time>2022-10-18T12:26:35.251Z</time>
      </trkpt>
      <trkpt lat="46.43314" lon="-1.6383">
        <ele>41.051558</ele>
        <time>2022-10-18T12:26:45.239Z</time>
      </trkpt>
      <trkpt lat="46.43321" lon="-1.6384">
        <ele>41.314897</ele>
        <time>2022-10-18T12:26:54.229Z</time>
      </trkpt>
      <trkpt lat="46.43328" lon="-1.63851">
        <ele>41.594453</ele>
        <time>2022-10-18T12:27:03.277Z</time>
      </trkpt>
      <trkpt lat="46.43334" lon="-1.63862">
        <ele>41.86194</ele>
        <time>2022-10-18T12:27:12.243Z</time>
      </trkpt>
      <trkpt lat="46.4334" lon="-1.63873">
        <ele>42.124599</ele>
        <time>2022-10-18T12:27:20.254Z</time>
      </trkpt>
      <trkpt lat="46.43345" lon="-1.63885">
        <ele>42.384369</ele>
        <time>2022-10-18T12:27:29.250Z</time>
      </trkpt>
      <trkpt lat="46.4335" lon="-1.63896">
        <ele>42.632837</ele>
        <time>2022-10-18T12:27:37.282Z</time>
      </trkpt>
      <trkpt lat="46.43354" lon="-1.63908">
        <ele>42.889583</ele>
        <time>2022-10-18T12:27:46.266Z</time>
      </trkpt>
      <trkpt lat="46.4336" lon="-1.6392">
        <ele>43.152095</ele>
        <time>2022-10-18T12:27:54.230Z</time>
      </trkpt>
      <trkpt lat="46.43365" lon="-1.6393">
        <ele>43.399473</ele>
        <time>2022-10-18T12:28:01.270Z</time>
      </trkpt>
      <trkpt lat="46.4337" lon="-1.63942">
        <ele>43.651163</ele>
        <time>2022-10-18T12:28:21.283Z</time>
      </trkpt>
      <trkpt lat="46.43378" lon="-1.63944">
        <ele>43.895803</ele>
        <time>2022-10-18T12:28:35.220Z</time>
      </trkpt>
      <trkpt lat="46.43388" lon="-1.63948">
        <ele>44.164902</ele>
        <time>2022-10-18T12:28:46.164Z</time>
      </trkpt>
      <trkpt lat="46.43404" lon="-1.63951">
        <ele>44.606542</ele>
        <time>2022-10-18T12:30:02.237Z</time>
      </trkpt>
      <trkpt lat="46.43412" lon="-1.63959">
        <ele>44.880098</ele>
        <time>2022-10-18T12:30:13.252Z</time>
      </trkpt>
      <trkpt lat="46.43421" lon="-1.63962">
        <ele>45.127858</ele>
        <time>2022-10-18T12:30:24.269Z</time>
      </trkpt>
      <trkpt lat="46.43431" lon="-1.63959">
        <ele>45.278798</ele>
        <time>2022-10-18T12:30:35.240Z</time>
      </trkpt>
      <trkpt lat="46.4344" lon="-1.63953">
        <ele>45.194113</ele>
        <time>2022-10-18T12:30:45.216Z</time>
      </trkpt>
      <trkpt lat="46.43449" lon="-1.63949">
        <ele>45.116869</ele>
        <time>2022-10-18T12:30:53.212Z</time>
      </trkpt>
      <trkpt lat="46.43459" lon="-1.63949">
        <ele>45.033362</ele>
        <time>2022-10-18T12:31:01.158Z</time>
      </trkpt>
      <trkpt lat="46.4347" lon="-1.63944">
        <ele>44.931406</ele>
        <time>2022-10-18T12:31:20.188Z</time>
      </trkpt>
      <trkpt lat="46.4348" lon="-1.63943">
        <ele>44.85195</ele>
        <time>2022-10-18T12:31:29.175Z</time>
      </trkpt>
      <trkpt lat="46.43488" lon="-1.63937">
        <ele>44.774194</ele>
        <time>2022-10-18T12:31:43.172Z</time>
      </trkpt>
      <trkpt lat="46.43497" lon="-1.63934">
        <ele>44.696071</ele>
        <time>2022-10-18T12:31:50.248Z</time>
      </trkpt>
      <trkpt lat="46.43506" lon="-1.6393">
        <ele>44.610114</ele>
        <time>2022-10-18T12:31:59.276Z</time>
      </trkpt>
      <trkpt lat="46.43514" lon="-1.63923">
        <ele>44.531705</ele>
        <time>2022-10-18T12:32:07.268Z</time>
      </trkpt>
      <trkpt lat="46.43523" lon="-1.63919">
        <ele>44.451965</ele>
        <time>2022-10-18T12:32:15.300Z</time>
      </trkpt>
      <trkpt lat="46.43532" lon="-1.63912">
        <ele>44.367489</ele>
        <time>2022-10-18T12:32:26.282Z</time>
      </trkpt>
      <trkpt lat="46.43539" lon="-1.63904">
        <ele>44.288107</ele>
        <time>2022-10-18T12:32:34.278Z</time>
      </trkpt>
      <trkpt lat="46.43548" lon="-1.63899">
        <ele>44.206565</ele>
        <time>2022-10-18T12:32:43.281Z</time>
      </trkpt>
      <trkpt lat="46.43556" lon="-1.63892">
        <ele>44.125631</ele>
        <time>2022-10-18T12:32:52.275Z</time>
      </trkpt>
      <trkpt lat="46.43565" lon="-1.63886">
        <ele>44.044539</ele>
        <time>2022-10-18T12:33:01.271Z</time>
      </trkpt>
      <trkpt lat="46.43575" lon="-1.63882">
        <ele>43.958582</ele>
        <time>2022-10-18T12:33:09.264Z</time>
      </trkpt>
      <trkpt lat="46.43584" lon="-1.63883">
        <ele>43.876578</ele>
        <time>2022-10-18T12:33:21.269Z</time>
      </trkpt>
      <trkpt lat="46.43593" lon="-1.63877">
        <ele>43.796806</ele>
        <time>2022-10-18T12:33:33.278Z</time>
      </trkpt>
      <trkpt lat="46.43601" lon="-1.63871">
        <ele>43.738298</ele>
        <time>2022-10-18T12:33:41.236Z</time>
      </trkpt>
      <trkpt lat="46.43611" lon="-1.63867">
        <ele>43.678575</ele>
        <time>2022-10-18T12:33:50.288Z</time>
      </trkpt>
      <trkpt lat="46.43619" lon="-1.6386">
        <ele>43.622412</ele>
        <time>2022-10-18T12:33:58.291Z</time>
      </trkpt>
      <trkpt lat="46.43627" lon="-1.63851">
        <ele>43.568924</ele>
        <time>2022-10-18T12:34:07.253Z</time>
      </trkpt>
      <trkpt lat="46.43634" lon="-1.63843">
        <ele>43.516083</ele>
        <time>2022-10-18T12:34:15.286Z</time>
      </trkpt>
      <trkpt lat="46.43641" lon="-1.63834">
        <ele>43.462936</ele>
        <time>2022-10-18T12:34:27.277Z</time>
      </trkpt>
      <trkpt lat="46.43649" lon="-1.63824">
        <ele>43.407614</ele>
        <time>2022-10-18T12:34:35.280Z</time>
      </trkpt>
      <trkpt lat="46.43656" lon="-1.63816">
        <ele>43.356202</ele>
        <time>2022-10-18T12:34:43.279Z</time>
      </trkpt>
      <trkpt lat="46.43663" lon="-1.63808">
        <ele>43.30336</ele>
        <time>2022-10-18T12:34:51.289Z</time>
      </trkpt>
      <trkpt lat="46.43672" lon="-1.638">
        <ele>43.245003</ele>
        <time>2022-10-18T12:35:02.267Z</time>
      </trkpt>
      <trkpt lat="46.43681" lon="-1.63795">
        <ele>43.190981</ele>
        <time>2022-10-18T12:35:13.327Z</time>
      </trkpt>
      <trkpt lat="46.4369" lon="-1.63797">
        <ele>43.139248</ele>
        <time>2022-10-18T12:35:22.285Z</time>
      </trkpt>
      <trkpt lat="46.437" lon="-1.63794">
        <ele>43.081675</ele>
        <time>2022-10-18T12:35:32.273Z</time>
      </trkpt>
      <trkpt lat="46.43707" lon="-1.63783">
        <ele>43.023708</ele>
        <time>2022-10-18T12:35:42.276Z</time>
      </trkpt>
      <trkpt lat="46.43713" lon="-1.63772">
        <ele>42.967589</ele>
        <time>2022-10-18T12:35:50.267Z</time>
      </trkpt>
      <trkpt lat="46.43718" lon="-1.63761">
        <ele>42.914723</ele>
        <time>2022-10-18T12:35:59.279Z</time>
      </trkpt>
      <trkpt lat="46.43724" lon="-1.63749">
        <ele>42.859279</ele>
        <time>2022-10-18T12:36:07.279Z</time>
      </trkpt>
      <trkpt lat="46.43729" lon="-1.63736">
        <ele>42.80271</ele>
        <time>2022-10-18T12:36:15.194Z</time>
      </trkpt>
      <trkpt lat="46.43733" lon="-1.63724">
        <ele>42.75686</ele>
        <time>2022-10-18T12:36:24.274Z</time>
      </trkpt>
      <trkpt lat="46.4374" lon="-1.63714">
        <ele>42.737796</ele>
        <time>2022-10-18T12:36:35.281Z</time>
      </trkpt>
      <trkpt lat="46.43746" lon="-1.63702">
        <ele>42.71795</ele>
        <time>2022-10-18T12:36:45.270Z</time>
      </trkpt>
      <trkpt lat="46.43752" lon="-1.63691">
        <ele>42.699109</ele>
        <time>2022-10-18T12:36:52.216Z</time>
      </trkpt>
      <trkpt lat="46.43756" lon="-1.63679">
        <ele>42.680839</ele>
        <time>2022-10-18T12:37:00.249Z</time>
      </trkpt>
      <trkpt lat="46.43762" lon="-1.63667">
        <ele>42.661333</ele>
        <time>2022-10-18T12:37:09.244Z</time>
      </trkpt>
      <trkpt lat="46.43769" lon="-1.63656">
        <ele>42.641609</ele>
        <time>2022-10-18T12:37:16.235Z</time>
      </trkpt>
      <trkpt lat="46.43775" lon="-1.63647">
        <ele>42.623314</ele>
        <time>2022-10-18T12:37:24.273Z</time>
      </trkpt>
      <trkpt lat="46.43781" lon="-1.63634">
        <ele>42.604016</ele>
        <time>2022-10-18T12:37:32.264Z</time>
      </trkpt>
      <trkpt lat="46.43784" lon="-1.63622">
        <ele>42.585678</ele>
        <time>2022-10-18T12:37:40.261Z</time>
      </trkpt>
      <trkpt lat="46.43788" lon="-1.6361">
        <ele>42.567323</ele>
        <time>2022-10-18T12:37:48.254Z</time>
      </trkpt>
      <trkpt lat="46.43793" lon="-1.63598">
        <ele>42.548564</ele>
        <time>2022-10-18T12:37:56.271Z</time>
      </trkpt>
      <trkpt lat="46.438" lon="-1.63588">
        <ele>42.530217</ele>
        <time>2022-10-18T12:38:04.246Z</time>
      </trkpt>
      <trkpt lat="46.43806" lon="-1.63578">
        <ele>42.512573</ele>
        <time>2022-10-18T12:38:12.277Z</time>
      </trkpt>
      <trkpt lat="46.43813" lon="-1.63568">
        <ele>42.493434</ele>
        <time>2022-10-18T12:38:19.258Z</time>
      </trkpt>
      <trkpt lat="46.43821" lon="-1.63559">
        <ele>42.473545</ele>
        <time>2022-10-18T12:38:28.281Z</time>
      </trkpt>
      <trkpt lat="46.43828" lon="-1.63551">
        <ele>42.455682</ele>
        <time>2022-10-18T12:38:36.268Z</time>
      </trkpt>
      <trkpt lat="46.43836" lon="-1.63543">
        <ele>42.436707</ele>
        <time>2022-10-18T12:38:43.255Z</time>
      </trkpt>
      <trkpt lat="46.43843" lon="-1.63534">
        <ele>42.418618</ele>
        <time>2022-10-18T12:38:51.252Z</time>
      </trkpt>
      <trkpt lat="46.43852" lon="-1.63526">
        <ele>42.529454</ele>
        <time>2022-10-18T12:39:01.230Z</time>
      </trkpt>
      <trkpt lat="46.43859" lon="-1.63516">
        <ele>42.734442</ele>
        <time>2022-10-18T12:39:09.291Z</time>
      </trkpt>
      <trkpt lat="46.43865" lon="-1.63506">
        <ele>42.930029</ele>
        <time>2022-10-18T12:39:17.291Z</time>
      </trkpt>
      <trkpt lat="46.43871" lon="-1.63494">
        <ele>43.137814</ele>
        <time>2022-10-18T12:39:26.282Z</time>
      </trkpt>
      <trkpt lat="46.43875" lon="-1.63481">
        <ele>43.336866</ele>
        <time>2022-10-18T12:39:35.260Z</time>
      </trkpt>
      <trkpt lat="46.43879" lon="-1.63469">
        <ele>43.523904</ele>
        <time>2022-10-18T12:39:42.253Z</time>
      </trkpt>
      <trkpt lat="46.43883" lon="-1.63457">
        <ele>43.715548</ele>
        <time>2022-10-18T12:39:51.285Z</time>
      </trkpt>
      <trkpt lat="46.43884" lon="-1.63444">
        <ele>43.904116</ele>
        <time>2022-10-18T12:40:00.292Z</time>
      </trkpt>
      <trkpt lat="46.43886" lon="-1.63431">
        <ele>44.089579</ele>
        <time>2022-10-18T12:40:08.267Z</time>
      </trkpt>
      <trkpt lat="46.43892" lon="-1.63421">
        <ele>44.278722</ele>
        <time>2022-10-18T12:40:16.245Z</time>
      </trkpt>
      <trkpt lat="46.43896" lon="-1.63408">
        <ele>44.475321</ele>
        <time>2022-10-18T12:40:24.214Z</time>
      </trkpt>
      <trkpt lat="46.439" lon="-1.63397">
        <ele>44.662838</ele>
        <time>2022-10-18T12:40:33.271Z</time>
      </trkpt>
      <trkpt lat="46.43906" lon="-1.63385">
        <ele>44.861256</ele>
        <time>2022-10-18T12:40:41.264Z</time>
      </trkpt>
      <trkpt lat="46.43913" lon="-1.63376">
        <ele>45.050033</ele>
        <time>2022-10-18T12:40:50.290Z</time>
      </trkpt>
      <trkpt lat="46.43922" lon="-1.63376">
        <ele>45.243224</ele>
        <time>2022-10-18T12:40:58.263Z</time>
      </trkpt>
      <trkpt lat="46.43931" lon="-1.63376">
        <ele>45.430438</ele>
        <time>2022-10-18T12:41:06.263Z</time>
      </trkpt>
      <trkpt lat="46.43941" lon="-1.63377">
        <ele>45.628591</ele>
        <time>2022-10-18T12:41:15.175Z</time>
      </trkpt>
      <trkpt lat="46.4395" lon="-1.63382">
        <ele>45.833971</ele>
        <time>2022-10-18T12:41:23.255Z</time>
      </trkpt>
      <trkpt lat="46.4396" lon="-1.63384">
        <ele>46.0362</ele>
        <time>2022-10-18T12:41:30.269Z</time>
      </trkpt>
      <trkpt lat="46.43969" lon="-1.63388">
        <ele>46.15013</ele>
        <time>2022-10-18T12:41:39.263Z</time>
      </trkpt>
      <trkpt lat="46.43979" lon="-1.63388">
        <ele>46.215125</ele>
        <time>2022-10-18T12:41:46.265Z</time>
      </trkpt>
      <trkpt lat="46.43988" lon="-1.63387">
        <ele>46.278141</ele>
        <time>2022-10-18T12:41:53.273Z</time>
      </trkpt>
      <trkpt lat="46.43997" lon="-1.63383">
        <ele>46.343783</ele>
        <time>2022-10-18T12:42:04.270Z</time>
      </trkpt>
      <trkpt lat="46.44006" lon="-1.63381">
        <ele>46.407734</ele>
        <time>2022-10-18T12:42:12.259Z</time>
      </trkpt>
      <trkpt lat="46.44015" lon="-1.63375">
        <ele>46.477869</ele>
        <time>2022-10-18T12:42:21.278Z</time>
      </trkpt>
      <trkpt lat="46.44023" lon="-1.63368">
        <ele>46.54705</ele>
        <time>2022-10-18T12:42:28.261Z</time>
      </trkpt>
      <trkpt lat="46.4403" lon="-1.63358">
        <ele>46.610689</ele>
        <time>2022-10-18T12:42:36.255Z</time>
      </trkpt>
      <trkpt lat="46.44036" lon="-1.63349">
        <ele>46.673308</ele>
        <time>2022-10-18T12:42:44.256Z</time>
      </trkpt>
      <trkpt lat="46.44043" lon="-1.6334">
        <ele>46.737636</ele>
        <time>2022-10-18T12:42:51.221Z</time>
      </trkpt>
      <trkpt lat="46.44047" lon="-1.63329">
        <ele>46.801121</ele>
        <time>2022-10-18T12:42:58.286Z</time>
      </trkpt>
      <trkpt lat="46.44052" lon="-1.63317">
        <ele>46.865405</ele>
        <time>2022-10-18T12:43:07.249Z</time>
      </trkpt>
      <trkpt lat="46.44055" lon="-1.63304">
        <ele>46.929938</ele>
        <time>2022-10-18T12:43:14.282Z</time>
      </trkpt>
      <trkpt lat="46.44058" lon="-1.63292">
        <ele>46.995967</ele>
        <time>2022-10-18T12:43:21.277Z</time>
      </trkpt>
      <trkpt lat="46.44062" lon="-1.63278">
        <ele>47.06564</ele>
        <time>2022-10-18T12:43:30.275Z</time>
      </trkpt>
      <trkpt lat="46.44065" lon="-1.63265">
        <ele>47.131775</ele>
        <time>2022-10-18T12:43:38.270Z</time>
      </trkpt>
      <trkpt lat="46.44068" lon="-1.63252">
        <ele>47.200796</ele>
        <time>2022-10-18T12:43:45.266Z</time>
      </trkpt>
      <trkpt lat="46.44073" lon="-1.6324">
        <ele>47.266434</ele>
        <time>2022-10-18T12:43:53.252Z</time>
      </trkpt>
      <trkpt lat="46.44078" lon="-1.63227">
        <ele>47.335929</ele>
        <time>2022-10-18T12:44:01.301Z</time>
      </trkpt>
      <trkpt lat="46.44084" lon="-1.63217">
        <ele>47.240274</ele>
        <time>2022-10-18T12:44:09.277Z</time>
      </trkpt>
      <trkpt lat="46.44089" lon="-1.63206">
        <ele>47.0408</ele>
        <time>2022-10-18T12:44:16.282Z</time>
      </trkpt>
      <trkpt lat="46.44096" lon="-1.63196">
        <ele>46.833576</ele>
        <time>2022-10-18T12:44:23.203Z</time>
      </trkpt>
      <trkpt lat="46.44101" lon="-1.63185">
        <ele>46.629056</ele>
        <time>2022-10-18T12:44:30.202Z</time>
      </trkpt>
      <trkpt lat="46.44106" lon="-1.63173">
        <ele>46.407745</ele>
        <time>2022-10-18T12:44:39.270Z</time>
      </trkpt>
      <trkpt lat="46.44107" lon="-1.63159">
        <ele>46.201316</ele>
        <time>2022-10-18T12:44:48.275Z</time>
      </trkpt>
      <trkpt lat="46.44107" lon="-1.63146">
        <ele>45.993934</ele>
        <time>2022-10-18T12:44:55.294Z</time>
      </trkpt>
      <trkpt lat="46.44105" lon="-1.63131">
        <ele>45.770221</ele>
        <time>2022-10-18T12:45:03.277Z</time>
      </trkpt>
      <trkpt lat="46.44106" lon="-1.63118">
        <ele>45.555523</ele>
        <time>2022-10-18T12:45:11.248Z</time>
      </trkpt>
      <trkpt lat="46.44112" lon="-1.63105">
        <ele>45.33214</ele>
        <time>2022-10-18T12:45:19.270Z</time>
      </trkpt>
      <trkpt lat="46.44116" lon="-1.63093">
        <ele>45.116565</ele>
        <time>2022-10-18T12:45:26.248Z</time>
      </trkpt>
      <trkpt lat="46.44118" lon="-1.6308">
        <ele>44.911528</ele>
        <time>2022-10-18T12:45:34.270Z</time>
      </trkpt>
      <trkpt lat="46.44118" lon="-1.63066">
        <ele>44.705562</ele>
        <time>2022-10-18T12:45:42.243Z</time>
      </trkpt>
      <trkpt lat="46.44115" lon="-1.63052">
        <ele>44.48656</ele>
        <time>2022-10-18T12:45:50.291Z</time>
      </trkpt>
      <trkpt lat="46.44107" lon="-1.63043">
        <ele>44.267117</ele>
        <time>2022-10-18T12:45:57.248Z</time>
      </trkpt>
      <trkpt lat="46.441" lon="-1.63035">
        <ele>44.056722</ele>
        <time>2022-10-18T12:46:05.275Z</time>
      </trkpt>
      <trkpt lat="46.44092" lon="-1.63028">
        <ele>43.850479</ele>
        <time>2022-10-18T12:46:13.277Z</time>
      </trkpt>
      <trkpt lat="46.44085" lon="-1.63016">
        <ele>43.62646</ele>
        <time>2022-10-18T12:46:21.259Z</time>
      </trkpt>
      <trkpt lat="46.44085" lon="-1.63002">
        <ele>43.402508</ele>
        <time>2022-10-18T12:46:30.307Z</time>
      </trkpt>
      <trkpt lat="46.44089" lon="-1.6299">
        <ele>43.516089</ele>
        <time>2022-10-18T12:46:37.280Z</time>
      </trkpt>
      <trkpt lat="46.44096" lon="-1.6298">
        <ele>43.656701</ele>
        <time>2022-10-18T12:46:44.272Z</time>
      </trkpt>
      <trkpt lat="46.44106" lon="-1.62975">
        <ele>43.818949</ele>
        <time>2022-10-18T12:53:47.278Z</time>
      </trkpt>
      <trkpt lat="46.44114" lon="-1.62967">
        <ele>43.95622</ele>
        <time>2022-10-18T12:54:03.247Z</time>
      </trkpt>
      <trkpt lat="46.44122" lon="-1.62961">
        <ele>44.098624</ele>
        <time>2022-10-18T12:54:14.279Z</time>
      </trkpt>
      <trkpt lat="46.4413" lon="-1.62954">
        <ele>44.238276</ele>
        <time>2022-10-18T12:54:23.262Z</time>
      </trkpt>
      <trkpt lat="46.44138" lon="-1.62947">
        <ele>44.375356</ele>
        <time>2022-10-18T12:54:34.278Z</time>
      </trkpt>
      <trkpt lat="46.44146" lon="-1.62941">
        <ele>44.513263</ele>
        <time>2022-10-18T12:54:45.264Z</time>
      </trkpt>
      <trkpt lat="46.44154" lon="-1.62934">
        <ele>44.655786</ele>
        <time>2022-10-18T12:54:53.279Z</time>
      </trkpt>
      <trkpt lat="46.44164" lon="-1.6293">
        <ele>44.808603</ele>
        <time>2022-10-18T12:55:02.274Z</time>
      </trkpt>
      <trkpt lat="46.44173" lon="-1.6293">
        <ele>44.943674</ele>
        <time>2022-10-18T12:55:08.274Z</time>
      </trkpt>
      <trkpt lat="46.44183" lon="-1.62933">
        <ele>45.095029</ele>
        <time>2022-10-18T12:55:15.294Z</time>
      </trkpt>
      <trkpt lat="46.44192" lon="-1.62935">
        <ele>45.23696</ele>
        <time>2022-10-18T12:55:22.260Z</time>
      </trkpt>
      <trkpt lat="46.44202" lon="-1.62937">
        <ele>45.383839</ele>
        <time>2022-10-18T12:55:29.228Z</time>
      </trkpt>
      <trkpt lat="46.44212" lon="-1.62936">
        <ele>45.531262</ele>
        <time>2022-10-18T12:55:37.277Z</time>
      </trkpt>
      <trkpt lat="46.44221" lon="-1.62935">
        <ele>45.669875</ele>
        <time>2022-10-18T12:55:45.224Z</time>
      </trkpt>
      <trkpt lat="46.44231" lon="-1.62934">
        <ele>45.818795</ele>
        <time>2022-10-18T12:55:54.239Z</time>
      </trkpt>
      <trkpt lat="46.44241" lon="-1.62933">
        <ele>45.968059</ele>
        <time>2022-10-18T12:56:03.210Z</time>
      </trkpt>
      <trkpt lat="46.4425" lon="-1.62937">
        <ele>46.06636</ele>
        <time>2022-10-18T12:56:14.276Z</time>
      </trkpt>
      <trkpt lat="46.44259" lon="-1.6294">
        <ele>45.927946</ele>
        <time>2022-10-18T12:56:23.280Z</time>
      </trkpt>
      <trkpt lat="46.44267" lon="-1.62947">
        <ele>45.786405</ele>
        <time>2022-10-18T12:56:32.309Z</time>
      </trkpt>
      <trkpt lat="46.44276" lon="-1.62954">
        <ele>45.63491</ele>
        <time>2022-10-18T12:56:40.256Z</time>
      </trkpt>
      <trkpt lat="46.44284" lon="-1.6296">
        <ele>45.486188</ele>
        <time>2022-10-18T12:56:48.262Z</time>
      </trkpt>
      <trkpt lat="46.44293" lon="-1.62963">
        <ele>45.347326</ele>
        <time>2022-10-18T12:56:57.289Z</time>
      </trkpt>
      <trkpt lat="46.44303" lon="-1.62965">
        <ele>45.200081</ele>
        <time>2022-10-18T12:57:06.266Z</time>
      </trkpt>
      <trkpt lat="46.44312" lon="-1.62962">
        <ele>45.061439</ele>
        <time>2022-10-18T12:57:15.195Z</time>
      </trkpt>
      <trkpt lat="46.44322" lon="-1.62958">
        <ele>44.915739</ele>
        <time>2022-10-18T12:57:23.202Z</time>
      </trkpt>
      <trkpt lat="46.44331" lon="-1.62957">
        <ele>44.777226</ele>
        <time>2022-10-18T12:57:31.274Z</time>
      </trkpt>
      <trkpt lat="46.44341" lon="-1.62958">
        <ele>44.62986</ele>
        <time>2022-10-18T12:57:39.300Z</time>
      </trkpt>
      <trkpt lat="46.44351" lon="-1.62957">
        <ele>44.477936</ele>
        <time>2022-10-18T12:57:48.264Z</time>
      </trkpt>
      <trkpt lat="46.4436" lon="-1.62956">
        <ele>44.342559</ele>
        <time>2022-10-18T12:57:56.250Z</time>
      </trkpt>
      <trkpt lat="46.44369" lon="-1.62957">
        <ele>44.199794</ele>
        <time>2022-10-18T12:58:05.276Z</time>
      </trkpt>
      <trkpt lat="46.44378" lon="-1.62959">
        <ele>44.061453</ele>
        <time>2022-10-18T12:58:13.298Z</time>
      </trkpt>
      <trkpt lat="46.44388" lon="-1.6296">
        <ele>43.915687</ele>
        <time>2022-10-18T12:58:22.262Z</time>
      </trkpt>
      <trkpt lat="46.44396" lon="-1.62966">
        <ele>43.773726</ele>
        <time>2022-10-18T12:58:34.280Z</time>
      </trkpt>
      <trkpt lat="46.44402" lon="-1.62976">
        <ele>43.637328</ele>
        <time>2022-10-18T12:58:44.298Z</time>
      </trkpt>
      <trkpt lat="46.44409" lon="-1.62987">
        <ele>43.485338</ele>
        <time>2022-10-18T12:58:56.257Z</time>
      </trkpt>
      <trkpt lat="46.44416" lon="-1.62996">
        <ele>43.332894</ele>
        <time>2022-10-18T12:59:07.258Z</time>
      </trkpt>
      <trkpt lat="46.4442" lon="-1.63008">
        <ele>43.157201</ele>
        <time>2022-10-18T12:59:16.285Z</time>
      </trkpt>
      <trkpt lat="46.44426" lon="-1.63019">
        <ele>42.981173</ele>
        <time>2022-10-18T12:59:25.282Z</time>
      </trkpt>
      <trkpt lat="46.44431" lon="-1.6303">
        <ele>42.805084</ele>
        <time>2022-10-18T12:59:34.285Z</time>
      </trkpt>
      <trkpt lat="46.44438" lon="-1.63038">
        <ele>42.632242</ele>
        <time>2022-10-18T12:59:42.270Z</time>
      </trkpt>
      <trkpt lat="46.44443" lon="-1.63049">
        <ele>42.457066</ele>
        <time>2022-10-18T12:59:51.263Z</time>
      </trkpt>
      <trkpt lat="46.4445" lon="-1.6306">
        <ele>42.268305</ele>
        <time>2022-10-18T12:59:59.228Z</time>
      </trkpt>
      <trkpt lat="46.44457" lon="-1.6307">
        <ele>42.081394</ele>
        <time>2022-10-18T13:00:08.284Z</time>
      </trkpt>
      <trkpt lat="46.44464" lon="-1.63078">
        <ele>41.908727</ele>
        <time>2022-10-18T13:00:15.247Z</time>
      </trkpt>
      <trkpt lat="46.44473" lon="-1.63085">
        <ele>41.721738</ele>
        <time>2022-10-18T13:00:24.254Z</time>
      </trkpt>
      <trkpt lat="46.4448" lon="-1.63094">
        <ele>41.540055</ele>
        <time>2022-10-18T13:00:32.289Z</time>
      </trkpt>
      <trkpt lat="46.44487" lon="-1.63103">
        <ele>41.364912</ele>
        <time>2022-10-18T13:00:41.285Z</time>
      </trkpt>
      <trkpt lat="46.44495" lon="-1.6311">
        <ele>41.179768</ele>
        <time>2022-10-18T13:00:50.273Z</time>
      </trkpt>
      <trkpt lat="46.44503" lon="-1.63118">
        <ele>41.002441</ele>
        <time>2022-10-18T13:00:58.277Z</time>
      </trkpt>
      <trkpt lat="46.4451" lon="-1.63126">
        <ele>40.825311</ele>
        <time>2022-10-18T13:01:07.286Z</time>
      </trkpt>
      <trkpt lat="46.44518" lon="-1.63134">
        <ele>40.652644</ele>
        <time>2022-10-18T13:01:15.277Z</time>
      </trkpt>
      <trkpt lat="46.44525" lon="-1.63142">
        <ele>40.466285</ele>
        <time>2022-10-18T13:01:24.322Z</time>
      </trkpt>
      <trkpt lat="46.44533" lon="-1.6315">
        <ele>40.29222</ele>
        <time>2022-10-18T13:01:32.333Z</time>
      </trkpt>
      <trkpt lat="46.44539" lon="-1.63161">
        <ele>40.111645</ele>
        <time>2022-10-18T13:01:40.211Z</time>
      </trkpt>
      <trkpt lat="46.44545" lon="-1.6317">
        <ele>39.986368</ele>
        <time>2022-10-18T13:01:49.280Z</time>
      </trkpt>
      <trkpt lat="46.4455" lon="-1.63182">
        <ele>40.160431</ele>
        <time>2022-10-18T13:01:58.294Z</time>
      </trkpt>
      <trkpt lat="46.44551" lon="-1.63196">
        <ele>40.350366</ele>
        <time>2022-10-18T13:02:06.257Z</time>
      </trkpt>
      <trkpt lat="46.44555" lon="-1.63209">
        <ele>40.537154</ele>
        <time>2022-10-18T13:02:15.270Z</time>
      </trkpt>
      <trkpt lat="46.44563" lon="-1.63232">
        <ele>40.861243</ele>
        <time>2022-10-18T13:03:56.297Z</time>
      </trkpt>
      <trkpt lat="46.44571" lon="-1.63237">
        <ele>41.037593</ele>
        <time>2022-10-18T13:04:07.292Z</time>
      </trkpt>
      <trkpt lat="46.44581" lon="-1.63237">
        <ele>41.228298</ele>
        <time>2022-10-18T13:04:16.281Z</time>
      </trkpt>
      <trkpt lat="46.4459" lon="-1.6324">
        <ele>41.400753</ele>
        <time>2022-10-18T13:04:25.279Z</time>
      </trkpt>
      <trkpt lat="46.446" lon="-1.63241">
        <ele>41.578346</ele>
        <time>2022-10-18T13:04:34.250Z</time>
      </trkpt>
      <trkpt lat="46.44609" lon="-1.63239">
        <ele>41.758858</ele>
        <time>2022-10-18T13:04:44.201Z</time>
      </trkpt>
      <trkpt lat="46.44619" lon="-1.63239">
        <ele>41.936398</ele>
        <time>2022-10-18T13:04:53.278Z</time>
      </trkpt>
      <trkpt lat="46.44627" lon="-1.63241">
        <ele>42.105902</ele>
        <time>2022-10-18T13:05:02.280Z</time>
      </trkpt>
      <trkpt lat="46.44637" lon="-1.63243">
        <ele>42.29813</ele>
        <time>2022-10-18T13:05:12.273Z</time>
      </trkpt>
      <trkpt lat="46.44648" lon="-1.63242">
        <ele>42.49151</ele>
        <time>2022-10-18T13:05:21.290Z</time>
      </trkpt>
      <trkpt lat="46.44657" lon="-1.6324">
        <ele>42.677375</ele>
        <time>2022-10-18T13:05:29.226Z</time>
      </trkpt>
      <trkpt lat="46.44667" lon="-1.63242">
        <ele>42.859242</ele>
        <time>2022-10-18T13:05:36.281Z</time>
      </trkpt>
      <trkpt lat="46.44676" lon="-1.63242">
        <ele>43.03301</ele>
        <time>2022-10-18T13:05:44.199Z</time>
      </trkpt>
      <trkpt lat="46.44686" lon="-1.63242">
        <ele>43.210603</ele>
        <time>2022-10-18T13:05:52.226Z</time>
      </trkpt>
      <trkpt lat="46.44695" lon="-1.63241">
        <ele>43.412116</ele>
        <time>2022-10-18T13:06:01.268Z</time>
      </trkpt>
      <trkpt lat="46.44704" lon="-1.63244">
        <ele>43.697823</ele>
        <time>2022-10-18T13:06:10.263Z</time>
      </trkpt>
      <trkpt lat="46.44713" lon="-1.63245">
        <ele>43.998059</ele>
        <time>2022-10-18T13:06:18.288Z</time>
      </trkpt>
      <trkpt lat="46.44724" lon="-1.63245">
        <ele>44.317195</ele>
        <time>2022-10-18T13:06:27.249Z</time>
      </trkpt>
      <trkpt lat="46.44731" lon="-1.63253">
        <ele>44.610992</ele>
        <time>2022-10-18T13:06:35.237Z</time>
      </trkpt>
      <trkpt lat="46.44735" lon="-1.63266">
        <ele>44.923216</ele>
        <time>2022-10-18T13:06:45.243Z</time>
      </trkpt>
      <trkpt lat="46.4474" lon="-1.63278">
        <ele>45.221106</ele>
        <time>2022-10-18T13:06:54.271Z</time>
      </trkpt>
      <trkpt lat="46.44745" lon="-1.6329">
        <ele>45.517731</ele>
        <time>2022-10-18T13:07:03.259Z</time>
      </trkpt>
      <trkpt lat="46.4475" lon="-1.63301">
        <ele>45.820308</ele>
        <time>2022-10-18T13:07:12.276Z</time>
      </trkpt>
      <trkpt lat="46.44754" lon="-1.63314">
        <ele>46.11402</ele>
        <time>2022-10-18T13:07:21.291Z</time>
      </trkpt>
      <trkpt lat="46.44757" lon="-1.63326">
        <ele>46.407936</ele>
        <time>2022-10-18T13:07:29.271Z</time>
      </trkpt>
      <trkpt lat="46.4476" lon="-1.6334">
        <ele>46.712164</ele>
        <time>2022-10-18T13:07:37.257Z</time>
      </trkpt>
      <trkpt lat="46.44764" lon="-1.63352">
        <ele>47.012443</ele>
        <time>2022-10-18T13:07:46.273Z</time>
      </trkpt>
      <trkpt lat="46.44767" lon="-1.63365">
        <ele>47.303293</ele>
        <time>2022-10-18T13:07:53.254Z</time>
      </trkpt>
      <trkpt lat="46.4477" lon="-1.63378">
        <ele>47.610596</ele>
        <time>2022-10-18T13:08:01.294Z</time>
      </trkpt>
      <trkpt lat="46.44774" lon="-1.63391">
        <ele>47.905115</ele>
        <time>2022-10-18T13:08:12.218Z</time>
      </trkpt>
      <trkpt lat="46.44778" lon="-1.63404">
        <ele>48.219337</ele>
        <time>2022-10-18T13:08:21.296Z</time>
      </trkpt>
      <trkpt lat="46.44782" lon="-1.63416">
        <ele>48.514067</ele>
        <time>2022-10-18T13:08:32.269Z</time>
      </trkpt>
      <trkpt lat="46.44787" lon="-1.63428">
        <ele>48.808102</ele>
        <time>2022-10-18T13:08:40.334Z</time>
      </trkpt>
      <trkpt lat="46.44789" lon="-1.63441">
        <ele>49.019186</ele>
        <time>2022-10-18T13:09:00.221Z</time>
      </trkpt>
      <trkpt lat="46.44792" lon="-1.63453">
        <ele>48.956215</ele>
        <time>2022-10-18T13:09:10.292Z</time>
      </trkpt>
      <trkpt lat="46.44796" lon="-1.63466">
        <ele>48.889932</ele>
        <time>2022-10-18T13:09:18.261Z</time>
      </trkpt>
      <trkpt lat="46.44799" lon="-1.63479">
        <ele>48.825623</ele>
        <time>2022-10-18T13:09:26.184Z</time>
      </trkpt>
      <trkpt lat="46.44801" lon="-1.63491">
        <ele>48.763266</ele>
        <time>2022-10-18T13:09:35.283Z</time>
      </trkpt>
      <trkpt lat="46.44804" lon="-1.63505">
        <ele>48.693566</ele>
        <time>2022-10-18T13:09:49.293Z</time>
      </trkpt>
      <trkpt lat="46.44806" lon="-1.63519">
        <ele>48.625418</ele>
        <time>2022-10-18T13:09:58.285Z</time>
      </trkpt>
      <trkpt lat="46.44812" lon="-1.63531">
        <ele>48.557232</ele>
        <time>2022-10-18T13:10:07.290Z</time>
      </trkpt>
      <trkpt lat="46.44815" lon="-1.63544">
        <ele>48.493686</ele>
        <time>2022-10-18T13:10:15.254Z</time>
      </trkpt>
      <trkpt lat="46.44818" lon="-1.63556">
        <ele>48.429378</ele>
        <time>2022-10-18T13:10:24.267Z</time>
      </trkpt>
      <trkpt lat="46.44819" lon="-1.63571">
        <ele>48.359429</ele>
        <time>2022-10-18T13:10:32.260Z</time>
      </trkpt>
      <trkpt lat="46.44819" lon="-1.63585">
        <ele>48.291673</ele>
        <time>2022-10-18T13:10:40.219Z</time>
      </trkpt>
      <trkpt lat="46.44819" lon="-1.63599">
        <ele>48.224604</ele>
        <time>2022-10-18T13:10:48.279Z</time>
      </trkpt>
      <trkpt lat="46.44817" lon="-1.63614">
        <ele>48.154874</ele>
        <time>2022-10-18T13:10:58.275Z</time>
      </trkpt>
      <trkpt lat="46.44814" lon="-1.63627">
        <ele>48.088773</ele>
        <time>2022-10-18T13:11:06.253Z</time>
      </trkpt>
      <trkpt lat="46.44812" lon="-1.6364">
        <ele>48.022337</ele>
        <time>2022-10-18T13:11:15.248Z</time>
      </trkpt>
      <trkpt lat="46.44809" lon="-1.63654">
        <ele>47.952607</ele>
        <time>2022-10-18T13:11:23.272Z</time>
      </trkpt>
      <trkpt lat="46.44805" lon="-1.63667">
        <ele>47.887404</ele>
        <time>2022-10-18T13:11:31.285Z</time>
      </trkpt>
      <trkpt lat="46.44803" lon="-1.63681">
        <ele>47.820552</ele>
        <time>2022-10-18T13:11:40.278Z</time>
      </trkpt>
      <trkpt lat="46.44799" lon="-1.63694">
        <ele>47.977814</ele>
        <time>2022-10-18T13:11:48.281Z</time>
      </trkpt>
      <trkpt lat="46.44797" lon="-1.63708">
        <ele>48.327866</ele>
        <time>2022-10-18T13:11:56.262Z</time>
      </trkpt>
      <trkpt lat="46.44794" lon="-1.63721">
        <ele>48.651103</ele>
        <time>2022-10-18T13:12:04.283Z</time>
      </trkpt>
      <trkpt lat="46.44793" lon="-1.63736">
        <ele>48.988339</ele>
        <time>2022-10-18T13:12:12.270Z</time>
      </trkpt>
      <trkpt lat="46.4479" lon="-1.63748">
        <ele>49.298261</ele>
        <time>2022-10-18T13:12:23.264Z</time>
      </trkpt>
      <trkpt lat="46.44787" lon="-1.63761">
        <ele>49.62069</ele>
        <time>2022-10-18T13:12:30.295Z</time>
      </trkpt>
      <trkpt lat="46.44784" lon="-1.63774">
        <ele>49.933951</ele>
        <time>2022-10-18T13:12:38.252Z</time>
      </trkpt>
      <trkpt lat="46.44782" lon="-1.63787">
        <ele>50.264028</ele>
        <time>2022-10-18T13:12:45.261Z</time>
      </trkpt>
      <trkpt lat="46.44778" lon="-1.638">
        <ele>50.599464</ele>
        <time>2022-10-18T13:12:52.312Z</time>
      </trkpt>
      <trkpt lat="46.44775" lon="-1.63813">
        <ele>50.91448</ele>
        <time>2022-10-18T13:13:00.267Z</time>
      </trkpt>
      <trkpt lat="46.44773" lon="-1.63827">
        <ele>51.256833</ele>
        <time>2022-10-18T13:13:08.265Z</time>
      </trkpt>
      <trkpt lat="46.44771" lon="-1.63841">
        <ele>51.589032</ele>
        <time>2022-10-18T13:13:17.275Z</time>
      </trkpt>
      <trkpt lat="46.44768" lon="-1.63854">
        <ele>51.916809</ele>
        <time>2022-10-18T13:13:26.278Z</time>
      </trkpt>
      <trkpt lat="46.44764" lon="-1.63868">
        <ele>52.2689</ele>
        <time>2022-10-18T13:13:35.273Z</time>
      </trkpt>
      <trkpt lat="46.4476" lon="-1.6388">
        <ele>52.582358</ele>
        <time>2022-10-18T13:13:43.283Z</time>
      </trkpt>
      <trkpt lat="46.44757" lon="-1.63893">
        <ele>52.922453</ele>
        <time>2022-10-18T13:13:52.300Z</time>
      </trkpt>
      <trkpt lat="46.44754" lon="-1.63906">
        <ele>53.233803</ele>
        <time>2022-10-18T13:14:00.214Z</time>
      </trkpt>
      <trkpt lat="46.44753" lon="-1.63919">
        <ele>53.552062</ele>
        <time>2022-10-18T13:14:08.283Z</time>
      </trkpt>
      <trkpt lat="46.4475" lon="-1.63935">
        <ele>53.920673</ele>
        <time>2022-10-18T13:14:17.280Z</time>
      </trkpt>
      <trkpt lat="46.44746" lon="-1.63947">
        <ele>53.798439</ele>
        <time>2022-10-18T13:14:24.287Z</time>
      </trkpt>
      <trkpt lat="46.44741" lon="-1.63958">
        <ele>53.631433</ele>
        <time>2022-10-18T13:14:32.163Z</time>
      </trkpt>
      <trkpt lat="46.44737" lon="-1.63972">
        <ele>53.461</ele>
        <time>2022-10-18T13:15:05.203Z</time>
      </trkpt>
      <trkpt lat="46.44733" lon="-1.63985">
        <ele>53.292663</ele>
        <time>2022-10-18T13:15:15.273Z</time>
      </trkpt>
      <trkpt lat="46.44731" lon="-1.63998">
        <ele>53.130551</ele>
        <time>2022-10-18T13:15:23.225Z</time>
      </trkpt>
      <trkpt lat="46.44729" lon="-1.64011">
        <ele>52.974811</ele>
        <time>2022-10-18T13:15:31.260Z</time>
      </trkpt>
      <trkpt lat="46.44726" lon="-1.64024">
        <ele>52.819533</ele>
        <time>2022-10-18T13:15:38.265Z</time>
      </trkpt>
      <trkpt lat="46.44723" lon="-1.64037">
        <ele>52.658978</ele>
        <time>2022-10-18T13:15:46.258Z</time>
      </trkpt>
      <trkpt lat="46.44719" lon="-1.6405">
        <ele>52.487026</ele>
        <time>2022-10-18T13:15:55.208Z</time>
      </trkpt>
      <trkpt lat="46.44717" lon="-1.64064">
        <ele>52.325208</ele>
        <time>2022-10-18T13:16:04.223Z</time>
      </trkpt>
      <trkpt lat="46.44715" lon="-1.64077">
        <ele>52.166996</ele>
        <time>2022-10-18T13:16:12.255Z</time>
      </trkpt>
      <trkpt lat="46.44714" lon="-1.6409">
        <ele>52.006838</ele>
        <time>2022-10-18T13:16:20.248Z</time>
      </trkpt>
      <trkpt lat="46.44711" lon="-1.64103">
        <ele>51.847437</ele>
        <time>2022-10-18T13:16:29.256Z</time>
      </trkpt>
      <trkpt lat="46.44709" lon="-1.64116">
        <ele>51.691697</ele>
        <time>2022-10-18T13:16:37.262Z</time>
      </trkpt>
      <trkpt lat="46.44706" lon="-1.6413">
        <ele>51.522195</ele>
        <time>2022-10-18T13:16:47.255Z</time>
      </trkpt>
      <trkpt lat="46.44703" lon="-1.64143">
        <ele>51.361223</ele>
        <time>2022-10-18T13:16:55.249Z</time>
      </trkpt>
      <trkpt lat="46.44701" lon="-1.64156">
        <ele>51.198035</ele>
        <time>2022-10-18T13:17:04.309Z</time>
      </trkpt>
      <trkpt lat="46.44697" lon="-1.6417">
        <ele>51.023675</ele>
        <time>2022-10-18T13:17:14.299Z</time>
      </trkpt>
      <trkpt lat="46.4469" lon="-1.64177">
        <ele>50.866924</ele>
        <time>2022-10-18T13:17:23.268Z</time>
      </trkpt>
      <trkpt lat="46.4468" lon="-1.6418">
        <ele>50.358321</ele>
        <time>2022-10-18T13:17:32.273Z</time>
      </trkpt>
      <trkpt lat="46.44669" lon="-1.64181">
        <ele>49.747725</ele>
        <time>2022-10-18T13:20:13.259Z</time>
      </trkpt>
      <trkpt lat="46.4466" lon="-1.6418">
        <ele>49.270646</ele>
        <time>2022-10-18T13:20:21.195Z</time>
      </trkpt>
      <trkpt lat="46.4465" lon="-1.6418">
        <ele>48.761816</ele>
        <time>2022-10-18T13:20:31.296Z</time>
      </trkpt>
      <trkpt lat="46.44641" lon="-1.64181">
        <ele>48.279575</ele>
        <time>2022-10-18T13:20:39.265Z</time>
      </trkpt>
      <trkpt lat="46.44631" lon="-1.64181">
        <ele>47.744265</ele>
        <time>2022-10-18T13:20:48.188Z</time>
      </trkpt>
      <trkpt lat="46.44622" lon="-1.6418">
        <ele>47.256831</ele>
        <time>2022-10-18T13:20:57.252Z</time>
      </trkpt>
      <trkpt lat="46.44613" lon="-1.6418">
        <ele>46.737512</ele>
        <time>2022-10-18T13:21:06.253Z</time>
      </trkpt>
      <trkpt lat="46.44603" lon="-1.64181">
        <ele>46.222342</ele>
        <time>2022-10-18T13:21:15.231Z</time>
      </trkpt>
      <trkpt lat="46.44594" lon="-1.64183">
        <ele>45.719115</ele>
        <time>2022-10-18T13:21:25.260Z</time>
      </trkpt>
      <trkpt lat="46.44584" lon="-1.64182">
        <ele>45.214622</ele>
        <time>2022-10-18T13:21:33.239Z</time>
      </trkpt>
      <trkpt lat="46.44575" lon="-1.64183">
        <ele>44.699927</ele>
        <time>2022-10-18T13:21:41.265Z</time>
      </trkpt>
      <trkpt lat="46.44566" lon="-1.64181">
        <ele>44.20971</ele>
        <time>2022-10-18T13:21:48.261Z</time>
      </trkpt>
      <trkpt lat="46.44556" lon="-1.64182">
        <ele>43.710269</ele>
        <time>2022-10-18T13:21:57.315Z</time>
      </trkpt>
      <trkpt lat="46.44547" lon="-1.64183">
        <ele>43.20664</ele>
        <time>2022-10-18T13:22:04.261Z</time>
      </trkpt>
      <trkpt lat="46.44538" lon="-1.64183">
        <ele>42.71954</ele>
        <time>2022-10-18T13:22:12.204Z</time>
      </trkpt>
      <trkpt lat="46.44529" lon="-1.64183">
        <ele>42.23768</ele>
        <time>2022-10-18T13:22:20.269Z</time>
      </trkpt>
      <trkpt lat="46.44519" lon="-1.64183">
        <ele>41.707723</ele>
        <time>2022-10-18T13:22:28.203Z</time>
      </trkpt>
      <trkpt lat="46.4451" lon="-1.64183">
        <ele>41.236019</ele>
        <time>2022-10-18T13:22:36.284Z</time>
      </trkpt>
      <trkpt lat="46.445" lon="-1.64184">
        <ele>41.147122</ele>
        <time>2022-10-18T13:22:44.281Z</time>
      </trkpt>
      <trkpt lat="46.44491" lon="-1.64182">
        <ele>41.054919</ele>
        <time>2022-10-18T13:22:52.252Z</time>
      </trkpt>
      <trkpt lat="46.44481" lon="-1.64183">
        <ele>40.96687</ele>
        <time>2022-10-18T13:23:00.254Z</time>
      </trkpt>
      <trkpt lat="46.44471" lon="-1.64184">
        <ele>40.872885</ele>
        <time>2022-10-18T13:23:10.275Z</time>
      </trkpt>
      <trkpt lat="46.44462" lon="-1.64183">
        <ele>40.784836</ele>
        <time>2022-10-18T13:23:20.200Z</time>
      </trkpt>
      <trkpt lat="46.44453" lon="-1.64185">
        <ele>40.700277</ele>
        <time>2022-10-18T13:23:28.281Z</time>
      </trkpt>
      <trkpt lat="46.44443" lon="-1.64185">
        <ele>40.612442</ele>
        <time>2022-10-18T13:23:36.269Z</time>
      </trkpt>
      <trkpt lat="46.44434" lon="-1.64187">
        <ele>40.521242</ele>
        <time>2022-10-18T13:23:45.279Z</time>
      </trkpt>
      <trkpt lat="46.44424" lon="-1.64187">
        <ele>40.434325</ele>
        <time>2022-10-18T13:23:54.291Z</time>
      </trkpt>
      <trkpt lat="46.44415" lon="-1.64187">
        <ele>40.349274</ele>
        <time>2022-10-18T13:24:02.229Z</time>
      </trkpt>
      <trkpt lat="46.44409" lon="-1.64176">
        <ele>40.263054</ele>
        <time>2022-10-18T13:24:11.279Z</time>
      </trkpt>
      <trkpt lat="46.44412" lon="-1.64162">
        <ele>40.169155</ele>
        <time>2022-10-18T13:24:21.293Z</time>
      </trkpt>
      <trkpt lat="46.44414" lon="-1.64149">
        <ele>40.082019</ele>
        <time>2022-10-18T13:24:29.249Z</time>
      </trkpt>
      <trkpt lat="46.44417" lon="-1.64137">
        <ele>39.99741</ele>
        <time>2022-10-18T13:24:37.253Z</time>
      </trkpt>
      <trkpt lat="46.44421" lon="-1.64124">
        <ele>39.911387</ele>
        <time>2022-10-18T13:24:45.279Z</time>
      </trkpt>
      <trkpt lat="46.44427" lon="-1.64114">
        <ele>39.822249</ele>
        <time>2022-10-18T13:24:54.261Z</time>
      </trkpt>
      <trkpt lat="46.44433" lon="-1.64103">
        <ele>39.732063</ele>
        <time>2022-10-18T13:25:02.212Z</time>
      </trkpt>
      <trkpt lat="46.44439" lon="-1.64092">
        <ele>39.644349</ele>
        <time>2022-10-18T13:25:11.274Z</time>
      </trkpt>
      <trkpt lat="46.44445" lon="-1.64083">
        <ele>39.561391</ele>
        <time>2022-10-18T13:25:18.266Z</time>
      </trkpt>
      <trkpt lat="46.44452" lon="-1.64073">
        <ele>39.730892</ele>
        <time>2022-10-18T13:25:26.256Z</time>
      </trkpt>
      <trkpt lat="46.44458" lon="-1.64062">
        <ele>39.904409</ele>
        <time>2022-10-18T13:25:36.255Z</time>
      </trkpt>
      <trkpt lat="46.44465" lon="-1.64053">
        <ele>40.068954</ele>
        <time>2022-10-18T13:25:44.218Z</time>
      </trkpt>
      <trkpt lat="46.44472" lon="-1.64043">
        <ele>40.248292</ele>
        <time>2022-10-18T13:25:53.278Z</time>
      </trkpt>
      <trkpt lat="46.44479" lon="-1.64033">
        <ele>40.414531</ele>
        <time>2022-10-18T13:26:01.278Z</time>
      </trkpt>
      <trkpt lat="46.44485" lon="-1.64023">
        <ele>40.575423</ele>
        <time>2022-10-18T13:26:10.261Z</time>
      </trkpt>
      <trkpt lat="46.44491" lon="-1.64013">
        <ele>40.737443</ele>
        <time>2022-10-18T13:26:19.266Z</time>
      </trkpt>
      <trkpt lat="46.44498" lon="-1.64004">
        <ele>40.904642</ele>
        <time>2022-10-18T13:26:27.286Z</time>
      </trkpt>
      <trkpt lat="46.44505" lon="-1.63993">
        <ele>41.083822</ele>
        <time>2022-10-18T13:26:36.243Z</time>
      </trkpt>
      <trkpt lat="46.44509" lon="-1.6398">
        <ele>41.265691</ele>
        <time>2022-10-18T13:26:44.292Z</time>
      </trkpt>
      <trkpt lat="46.44514" lon="-1.63967">
        <ele>41.440385</ele>
        <time>2022-10-18T13:26:54.240Z</time>
      </trkpt>
      <trkpt lat="46.44517" lon="-1.63954">
        <ele>41.608662</ele>
        <time>2022-10-18T13:27:03.305Z</time>
      </trkpt>
      <trkpt lat="46.44517" lon="-1.63939">
        <ele>41.798298</ele>
        <time>2022-10-18T13:27:13.258Z</time>
      </trkpt>
      <trkpt lat="46.44519" lon="-1.63925">
        <ele>41.972152</ele>
        <time>2022-10-18T13:27:22.295Z</time>
      </trkpt>
      <trkpt lat="46.4452" lon="-1.63911">
        <ele>42.141929</ele>
        <time>2022-10-18T13:27:29.266Z</time>
      </trkpt>
      <trkpt lat="46.44524" lon="-1.63898">
        <ele>42.321616</ele>
        <time>2022-10-18T13:27:38.302Z</time>
      </trkpt>
      <trkpt lat="46.44522" lon="-1.63884">
        <ele>42.491205</ele>
        <time>2022-10-18T13:28:21.203Z</time>
      </trkpt>
      <trkpt lat="46.44525" lon="-1.63871">
        <ele>42.653634</ele>
        <time>2022-10-18T13:28:28.203Z</time>
      </trkpt>
      <trkpt lat="46.44527" lon="-1.63858">
        <ele>42.827491</ele>
        <time>2022-10-18T13:28:38.263Z</time>
      </trkpt>
      <trkpt lat="46.4453" lon="-1.63845">
        <ele>42.99738</ele>
        <time>2022-10-18T13:28:47.248Z</time>
      </trkpt>
      <trkpt lat="46.44529" lon="-1.6383">
        <ele>43.176749</ele>
        <time>2022-10-18T13:28:56.269Z</time>
      </trkpt>
      <trkpt lat="46.44531" lon="-1.63817">
        <ele>43.345221</ele>
        <time>2022-10-18T13:29:06.261Z</time>
      </trkpt>
      <trkpt lat="46.44535" lon="-1.63804">
        <ele>43.52274</ele>
        <time>2022-10-18T13:29:14.267Z</time>
      </trkpt>
      <trkpt lat="46.44537" lon="-1.63791">
        <ele>43.691211</ele>
        <time>2022-10-18T13:29:25.319Z</time>
      </trkpt>
      <trkpt lat="46.44538" lon="-1.63778">
        <ele>43.856549</ele>
        <time>2022-10-18T13:29:35.273Z</time>
      </trkpt>
      <trkpt lat="46.44541" lon="-1.63765">
        <ele>44.027231</ele>
        <time>2022-10-18T13:29:45.282Z</time>
      </trkpt>
      <trkpt lat="46.44543" lon="-1.63751">
        <ele>44.210729</ele>
        <time>2022-10-18T13:29:54.303Z</time>
      </trkpt>
      <trkpt lat="46.44544" lon="-1.63738">
        <ele>44.374904</ele>
        <time>2022-10-18T13:30:03.238Z</time>
      </trkpt>
      <trkpt lat="46.44545" lon="-1.63723">
        <ele>44.556004</ele>
        <time>2022-10-18T13:30:12.276Z</time>
      </trkpt>
      <trkpt lat="46.44547" lon="-1.63709">
        <ele>44.733425</ele>
        <time>2022-10-18T13:30:20.245Z</time>
      </trkpt>
      <trkpt lat="46.4455" lon="-1.63696">
        <ele>44.906344</ele>
        <time>2022-10-18T13:30:30.283Z</time>
      </trkpt>
      <trkpt lat="46.44552" lon="-1.63681">
        <ele>45.096062</ele>
        <time>2022-10-18T13:30:38.268Z</time>
      </trkpt>
      <trkpt lat="46.44554" lon="-1.63667">
        <ele>45.279912</ele>
        <time>2022-10-18T13:30:47.285Z</time>
      </trkpt>
      <trkpt lat="46.44554" lon="-1.63653">
        <ele>45.455231</ele>
        <time>2022-10-18T13:30:55.284Z</time>
      </trkpt>
      <trkpt lat="46.44556" lon="-1.63639">
        <ele>45.637863</ele>
        <time>2022-10-18T13:31:04.259Z</time>
      </trkpt>
      <trkpt lat="46.44556" lon="-1.63625">
        <ele>45.805642</ele>
        <time>2022-10-18T13:31:12.276Z</time>
      </trkpt>
      <trkpt lat="46.44559" lon="-1.63611">
        <ele>45.992794</ele>
        <time>2022-10-18T13:31:22.253Z</time>
      </trkpt>
      <trkpt lat="46.44561" lon="-1.63597">
        <ele>45.976717</ele>
        <time>2022-10-18T13:31:31.312Z</time>
      </trkpt>
      <trkpt lat="46.44562" lon="-1.63582">
        <ele>45.930445</ele>
        <time>2022-10-18T13:31:39.305Z</time>
      </trkpt>
      <trkpt lat="46.44563" lon="-1.63568">
        <ele>45.884219</ele>
        <time>2022-10-18T13:31:48.280Z</time>
      </trkpt>
      <trkpt lat="46.44564" lon="-1.63554">
        <ele>45.838361</ele>
        <time>2022-10-18T13:31:57.271Z</time>
      </trkpt>
      <trkpt lat="46.44566" lon="-1.6354">
        <ele>45.793955</ele>
        <time>2022-10-18T13:32:06.247Z</time>
      </trkpt>
      <trkpt lat="46.44567" lon="-1.63526">
        <ele>45.748249</ele>
        <time>2022-10-18T13:32:14.198Z</time>
      </trkpt>
      <trkpt lat="46.44567" lon="-1.63512">
        <ele>45.702626</ele>
        <time>2022-10-18T13:32:23.269Z</time>
      </trkpt>
      <trkpt lat="46.44565" lon="-1.63498">
        <ele>45.657729</ele>
        <time>2022-10-18T13:32:32.257Z</time>
      </trkpt>
      <trkpt lat="46.44563" lon="-1.63484">
        <ele>45.610941</ele>
        <time>2022-10-18T13:32:42.296Z</time>
      </trkpt>
      <trkpt lat="46.44563" lon="-1.63469">
        <ele>45.564336</ele>
        <time>2022-10-18T13:32:50.258Z</time>
      </trkpt>
      <trkpt lat="46.44562" lon="-1.63456">
        <ele>45.522124</ele>
        <time>2022-10-18T13:32:58.298Z</time>
      </trkpt>
      <trkpt lat="46.4456" lon="-1.63443">
        <ele>45.479208</ele>
        <time>2022-10-18T13:33:05.307Z</time>
      </trkpt>
      <trkpt lat="46.44558" lon="-1.6343">
        <ele>45.435978</ele>
        <time>2022-10-18T13:33:13.287Z</time>
      </trkpt>
      <trkpt lat="46.44556" lon="-1.63417">
        <ele>45.392798</ele>
        <time>2022-10-18T13:33:23.296Z</time>
      </trkpt>
      <trkpt lat="46.44556" lon="-1.63403">
        <ele>45.347177</ele>
        <time>2022-10-18T13:33:32.301Z</time>
      </trkpt>
      <trkpt lat="46.44553" lon="-1.6339">
        <ele>45.304869</ele>
        <time>2022-10-18T13:33:40.313Z</time>
      </trkpt>
      <trkpt lat="46.44554" lon="-1.63377">
        <ele>45.260877</ele>
        <time>2022-10-18T13:33:47.284Z</time>
      </trkpt>
      <trkpt lat="46.44555" lon="-1.63363">
        <ele>45.217442</ele>
        <time>2022-10-18T13:33:57.287Z</time>
      </trkpt>
      <trkpt lat="46.44554" lon="-1.63348">
        <ele>45.197871</ele>
        <time>2022-10-18T13:34:04.216Z</time>
      </trkpt>
      <trkpt lat="46.44557" lon="-1.63335">
        <ele>45.299606</ele>
        <time>2022-10-18T13:34:12.284Z</time>
      </trkpt>
      <trkpt lat="46.44558" lon="-1.63321">
        <ele>45.403291</ele>
        <time>2022-10-18T13:34:21.212Z</time>
      </trkpt>
      <trkpt lat="46.44556" lon="-1.63307">
        <ele>45.501804</ele>
        <time>2022-10-18T13:34:29.262Z</time>
      </trkpt>
      <trkpt lat="46.44555" lon="-1.63293">
        <ele>45.606652</ele>
        <time>2022-10-18T13:34:39.252Z</time>
      </trkpt>
      <trkpt lat="46.44554" lon="-1.6328">
        <ele>45.703371</ele>
        <time>2022-10-18T13:34:47.316Z</time>
      </trkpt>
      <trkpt lat="46.44558" lon="-1.63253">
        <ele>45.899707</ele>
        <time>2022-10-18T13:38:33.267Z</time>
      </trkpt>
      <trkpt lat="46.44557" lon="-1.6324">
        <ele>45.995705</ele>
        <time>2022-10-18T13:38:42.248Z</time>
      </trkpt>
      <trkpt lat="46.44558" lon="-1.63225">
        <ele>46.10035</ele>
        <time>2022-10-18T13:38:59.257Z</time>
      </trkpt>
      <trkpt lat="46.44555" lon="-1.63212">
        <ele>46.201101</ele>
        <time>2022-10-18T13:39:09.197Z</time>
      </trkpt>
      <trkpt lat="46.44554" lon="-1.63199">
        <ele>46.296489</ele>
        <time>2022-10-18T13:39:18.271Z</time>
      </trkpt>
      <trkpt lat="46.44551" lon="-1.63186">
        <ele>46.394338</ele>
        <time>2022-10-18T13:39:29.266Z</time>
      </trkpt>
      <trkpt lat="46.44548" lon="-1.63172">
        <ele>46.500764</ele>
        <time>2022-10-18T13:39:36.258Z</time>
      </trkpt>
      <trkpt lat="46.44543" lon="-1.63161">
        <ele>46.595671</ele>
        <time>2022-10-18T13:39:43.275Z</time>
      </trkpt>
      <trkpt lat="46.44535" lon="-1.63152">
        <ele>46.702624</ele>
        <time>2022-10-18T13:39:51.280Z</time>
      </trkpt>
      <trkpt lat="46.44528" lon="-1.63143">
        <ele>46.799584</ele>
        <time>2022-10-18T13:39:59.266Z</time>
      </trkpt>
      <trkpt lat="46.44521" lon="-1.63134">
        <ele>46.896384</ele>
        <time>2022-10-18T13:40:07.253Z</time>
      </trkpt>
      <trkpt lat="46.44513" lon="-1.63127">
        <ele>46.996713</ele>
        <time>2022-10-18T13:40:15.283Z</time>
      </trkpt>
      <trkpt lat="46.44505" lon="-1.63121">
        <ele>47.01354</ele>
        <time>2022-10-18T13:40:24.226Z</time>
      </trkpt>
      <trkpt lat="46.44497" lon="-1.63114">
        <ele>46.82909</ele>
        <time>2022-10-18T13:40:32.277Z</time>
      </trkpt>
      <trkpt lat="46.44489" lon="-1.63106">
        <ele>46.629032</ele>
        <time>2022-10-18T13:40:41.289Z</time>
      </trkpt>
      <trkpt lat="46.4448" lon="-1.63099">
        <ele>46.425693</ele>
        <time>2022-10-18T13:40:50.271Z</time>
      </trkpt>
      <trkpt lat="46.44473" lon="-1.63089">
        <ele>46.22251</ele>
        <time>2022-10-18T13:40:59.268Z</time>
      </trkpt>
      <trkpt lat="46.44465" lon="-1.63081">
        <ele>46.023658</ele>
        <time>2022-10-18T13:41:07.281Z</time>
      </trkpt>
      <trkpt lat="46.44457" lon="-1.63073">
        <ele>45.83268</ele>
        <time>2022-10-18T13:41:16.250Z</time>
      </trkpt>
      <trkpt lat="46.44449" lon="-1.63065">
        <ele>45.631832</ele>
        <time>2022-10-18T13:41:24.263Z</time>
      </trkpt>
      <trkpt lat="46.44443" lon="-1.63054">
        <ele>45.434262</ele>
        <time>2022-10-18T13:41:32.276Z</time>
      </trkpt>
      <trkpt lat="46.44438" lon="-1.63042">
        <ele>45.234623</ele>
        <time>2022-10-18T13:41:40.243Z</time>
      </trkpt>
      <trkpt lat="46.44431" lon="-1.63031">
        <ele>45.03337</ele>
        <time>2022-10-18T13:41:49.286Z</time>
      </trkpt>
      <trkpt lat="46.44424" lon="-1.6302">
        <ele>44.822827</ele>
        <time>2022-10-18T13:41:59.265Z</time>
      </trkpt>
      <trkpt lat="46.44419" lon="-1.63007">
        <ele>44.611733</ele>
        <time>2022-10-18T13:42:07.269Z</time>
      </trkpt>
      <trkpt lat="46.44416" lon="-1.62993">
        <ele>44.412987</ele>
        <time>2022-10-18T13:42:15.297Z</time>
      </trkpt>
      <trkpt lat="46.44411" lon="-1.62982">
        <ele>44.22588</ele>
        <time>2022-10-18T13:42:22.261Z</time>
      </trkpt>
      <trkpt lat="46.44405" lon="-1.62971">
        <ele>44.019992</ele>
        <time>2022-10-18T13:42:31.263Z</time>
      </trkpt>
      <trkpt lat="46.44397" lon="-1.62965">
        <ele>43.834395</ele>
        <time>2022-10-18T13:42:39.241Z</time>
      </trkpt>
      <trkpt lat="46.44387" lon="-1.62961">
        <ele>43.634067</ele>
        <time>2022-10-18T13:42:48.174Z</time>
      </trkpt>
      <trkpt lat="46.44377" lon="-1.62959">
        <ele>43.42614</ele>
        <time>2022-10-18T13:42:56.299Z</time>
      </trkpt>
      <trkpt lat="46.44368" lon="-1.62961">
        <ele>43.607668</ele>
        <time>2022-10-18T13:43:03.216Z</time>
      </trkpt>
      <trkpt lat="46.44358" lon="-1.6296">
        <ele>43.84293</ele>
        <time>2022-10-18T13:43:12.272Z</time>
      </trkpt>
      <trkpt lat="46.44349" lon="-1.62959">
        <ele>44.073165</ele>
        <time>2022-10-18T13:43:20.292Z</time>
      </trkpt>
      <trkpt lat="46.44339" lon="-1.62957">
        <ele>44.31081</ele>
        <time>2022-10-18T13:43:29.283Z</time>
      </trkpt>
      <trkpt lat="46.44329" lon="-1.62954">
        <ele>44.538708</ele>
        <time>2022-10-18T13:43:37.255Z</time>
      </trkpt>
      <trkpt lat="46.4432" lon="-1.62958">
        <ele>44.777035</ele>
        <time>2022-10-18T13:43:45.241Z</time>
      </trkpt>
      <trkpt lat="46.44311" lon="-1.6296">
        <ele>44.994536</ele>
        <time>2022-10-18T13:43:53.260Z</time>
      </trkpt>
      <trkpt lat="46.44301" lon="-1.62958">
        <ele>45.226775</ele>
        <time>2022-10-18T13:44:02.292Z</time>
      </trkpt>
      <trkpt lat="46.44292" lon="-1.62956">
        <ele>45.44247</ele>
        <time>2022-10-18T13:44:10.277Z</time>
      </trkpt>
      <trkpt lat="46.44283" lon="-1.62951">
        <ele>45.678278</ele>
        <time>2022-10-18T13:44:19.283Z</time>
      </trkpt>
      <trkpt lat="46.44274" lon="-1.62948">
        <ele>45.909536</ele>
        <time>2022-10-18T13:44:27.247Z</time>
      </trkpt>
      <trkpt lat="46.44265" lon="-1.62942">
        <ele>46.140736</ele>
        <time>2022-10-18T13:44:35.274Z</time>
      </trkpt>
      <trkpt lat="46.44256" lon="-1.62939">
        <ele>46.364056</ele>
        <time>2022-10-18T13:44:44.282Z</time>
      </trkpt>
      <trkpt lat="46.44247" lon="-1.62933">
        <ele>46.598008</ele>
        <time>2022-10-18T13:44:55.256Z</time>
      </trkpt>
      <trkpt lat="46.44237" lon="-1.62931">
        <ele>46.826322</ele>
        <time>2022-10-18T13:45:04.218Z</time>
      </trkpt>
      <trkpt lat="46.44228" lon="-1.62933">
        <ele>47.053131</ele>
        <time>2022-10-18T13:45:13.284Z</time>
      </trkpt>
      <trkpt lat="46.44219" lon="-1.62933">
        <ele>47.273262</ele>
        <time>2022-10-18T13:45:21.279Z</time>
      </trkpt>
      <trkpt lat="46.4421" lon="-1.62932">
        <ele>47.487592</ele>
        <time>2022-10-18T13:45:30.281Z</time>
      </trkpt>
      <trkpt lat="46.442" lon="-1.6293">
        <ele>47.718325</ele>
        <time>2022-10-18T13:45:38.293Z</time>
      </trkpt>
      <trkpt lat="46.4419" lon="-1.6293">
        <ele>47.840907</ele>
        <time>2022-10-18T13:45:46.266Z</time>
      </trkpt>
      <trkpt lat="46.44181" lon="-1.62925">
        <ele>47.961825</ele>
        <time>2022-10-18T13:45:56.220Z</time>
      </trkpt>
      <trkpt lat="46.44171" lon="-1.62926">
        <ele>48.07512</ele>
        <time>2022-10-18T13:46:06.276Z</time>
      </trkpt>
      <trkpt lat="46.44163" lon="-1.62933">
        <ele>48.190138</ele>
        <time>2022-10-18T13:46:19.264Z</time>
      </trkpt>
      <trkpt lat="46.44154" lon="-1.62939">
        <ele>48.309295</ele>
        <time>2022-10-18T13:46:27.210Z</time>
      </trkpt>
      <trkpt lat="46.44146" lon="-1.62944">
        <ele>48.421887</ele>
        <time>2022-10-18T13:46:35.273Z</time>
      </trkpt>
      <trkpt lat="46.44137" lon="-1.6295">
        <ele>48.539932</ele>
        <time>2022-10-18T13:46:43.253Z</time>
      </trkpt>
      <trkpt lat="46.44128" lon="-1.62956">
        <ele>48.656455</ele>
        <time>2022-10-18T13:46:51.246Z</time>
      </trkpt>
      <trkpt lat="46.4412" lon="-1.62961">
        <ele>48.765698</ele>
        <time>2022-10-18T13:46:58.272Z</time>
      </trkpt>
      <trkpt lat="46.44111" lon="-1.62967">
        <ele>48.884037</ele>
        <time>2022-10-18T13:47:06.284Z</time>
      </trkpt>
      <trkpt lat="46.44103" lon="-1.62976">
        <ele>49.006825</ele>
        <time>2022-10-18T13:47:14.290Z</time>
      </trkpt>
      <trkpt lat="46.44095" lon="-1.62984">
        <ele>49.117982</ele>
        <time>2022-10-18T13:47:21.269Z</time>
      </trkpt>
      <trkpt lat="46.44091" lon="-1.62997">
        <ele>49.235505</ele>
        <time>2022-10-18T13:47:30.270Z</time>
      </trkpt>
      <trkpt lat="46.4409" lon="-1.6301">
        <ele>49.351303</ele>
        <time>2022-10-18T13:47:39.265Z</time>
      </trkpt>
      <trkpt lat="46.44092" lon="-1.63025">
        <ele>49.473079</ele>
        <time>2022-10-18T13:47:48.227Z</time>
      </trkpt>
      <trkpt lat="46.44099" lon="-1.63034">
        <ele>49.588241</ele>
        <time>2022-10-18T13:47:56.260Z</time>
      </trkpt>
      <trkpt lat="46.44106" lon="-1.63042">
        <ele>49.702244</ele>
        <time>2022-10-18T13:48:04.294Z</time>
      </trkpt>
      <trkpt lat="46.44114" lon="-1.6305">
        <ele>49.818634</ele>
        <time>2022-10-18T13:48:13.288Z</time>
      </trkpt>
      <trkpt lat="46.44118" lon="-1.63063">
        <ele>49.852381</ele>
        <time>2022-10-18T13:48:23.244Z</time>
      </trkpt>
      <trkpt lat="46.4412" lon="-1.63077">
        <ele>49.735271</ele>
        <time>2022-10-18T13:48:31.301Z</time>
      </trkpt>
      <trkpt lat="46.44117" lon="-1.6309">
        <ele>49.622794</ele>
        <time>2022-10-18T13:48:40.269Z</time>
      </trkpt>
      <trkpt lat="46.44114" lon="-1.63102">
        <ele>49.510806</ele>
        <time>2022-10-18T13:48:49.265Z</time>
      </trkpt>
      <trkpt lat="46.44109" lon="-1.63114">
        <ele>49.394668</ele>
        <time>2022-10-18T13:48:57.280Z</time>
      </trkpt>
      <trkpt lat="46.44107" lon="-1.63128">
        <ele>49.279279</ele>
        <time>2022-10-18T13:49:05.274Z</time>
      </trkpt>
      <trkpt lat="46.44106" lon="-1.63142">
        <ele>49.161111</ele>
        <time>2022-10-18T13:49:13.309Z</time>
      </trkpt>
      <trkpt lat="46.44106" lon="-1.63156">
        <ele>49.041249</ele>
        <time>2022-10-18T13:49:21.266Z</time>
      </trkpt>
      <trkpt lat="46.44107" lon="-1.6317">
        <ele>48.920913</ele>
        <time>2022-10-18T13:49:30.299Z</time>
      </trkpt>
      <trkpt lat="46.44104" lon="-1.63183">
        <ele>48.806385</ele>
        <time>2022-10-18T13:49:38.262Z</time>
      </trkpt>
      <trkpt lat="46.44098" lon="-1.63194">
        <ele>48.684681</ele>
        <time>2022-10-18T13:49:47.273Z</time>
      </trkpt>
      <trkpt lat="46.44091" lon="-1.63205">
        <ele>48.565144</ele>
        <time>2022-10-18T13:49:55.242Z</time>
      </trkpt>
      <trkpt lat="46.44085" lon="-1.63215">
        <ele>48.453394</ele>
        <time>2022-10-18T13:50:05.239Z</time>
      </trkpt>
      <trkpt lat="46.44078" lon="-1.63227">
        <ele>48.325566</ele>
        <time>2022-10-18T13:50:13.271Z</time>
      </trkpt>
      <trkpt lat="46.44073" lon="-1.63238">
        <ele>48.210298</ele>
        <time>2022-10-18T13:50:21.285Z</time>
      </trkpt>
      <trkpt lat="46.44069" lon="-1.6325">
        <ele>48.100798</ele>
        <time>2022-10-18T13:50:28.263Z</time>
      </trkpt>
      <trkpt lat="46.44064" lon="-1.63261">
        <ele>47.98875</ele>
        <time>2022-10-18T13:50:36.285Z</time>
      </trkpt>
      <trkpt lat="46.44061" lon="-1.63275">
        <ele>47.870247</ele>
        <time>2022-10-18T13:50:44.285Z</time>
      </trkpt>
      <trkpt lat="46.44059" lon="-1.63287">
        <ele>47.760825</ele>
        <time>2022-10-18T13:50:52.270Z</time>
      </trkpt>
      <trkpt lat="46.44055" lon="-1.633">
        <ele>47.654081</ele>
        <time>2022-10-18T13:51:00.233Z</time>
      </trkpt>
      <trkpt lat="46.44052" lon="-1.63313">
        <ele>47.545318</ele>
        <time>2022-10-18T13:51:09.267Z</time>
      </trkpt>
      <trkpt lat="46.44047" lon="-1.63324">
        <ele>47.44005</ele>
        <time>2022-10-18T13:51:17.262Z</time>
      </trkpt>
      <trkpt lat="46.44042" lon="-1.63336">
        <ele>47.328007</ele>
        <time>2022-10-18T13:51:25.297Z</time>
      </trkpt>
      <trkpt lat="46.44036" lon="-1.63347">
        <ele>47.225381</ele>
        <time>2022-10-18T13:51:33.276Z</time>
      </trkpt>
      <trkpt lat="46.4403" lon="-1.63357">
        <ele>47.119607</ele>
        <time>2022-10-18T13:51:42.276Z</time>
      </trkpt>
      <trkpt lat="46.44023" lon="-1.63367">
        <ele>47.008929</ele>
        <time>2022-10-18T13:51:50.266Z</time>
      </trkpt>
      <trkpt lat="46.44015" lon="-1.63373">
        <ele>46.905334</ele>
        <time>2022-10-18T13:52:00.282Z</time>
      </trkpt>
      <trkpt lat="46.44007" lon="-1.63379">
        <ele>46.797403</ele>
        <time>2022-10-18T13:52:08.275Z</time>
      </trkpt>
      <trkpt lat="46.43997" lon="-1.63382">
        <ele>46.689931</ele>
        <time>2022-10-18T13:52:16.245Z</time>
      </trkpt>
      <trkpt lat="46.43988" lon="-1.63385">
        <ele>46.579839</ele>
        <time>2022-10-18T13:52:25.288Z</time>
      </trkpt>
      <trkpt lat="46.43979" lon="-1.63386">
        <ele>46.477346</ele>
        <time>2022-10-18T13:52:35.278Z</time>
      </trkpt>
      <trkpt lat="46.4397" lon="-1.63384">
        <ele>46.371607</ele>
        <time>2022-10-18T13:52:43.276Z</time>
      </trkpt>
      <trkpt lat="46.4396" lon="-1.63381">
        <ele>46.260456</ele>
        <time>2022-10-18T13:52:52.270Z</time>
      </trkpt>
      <trkpt lat="46.4395" lon="-1.63379">
        <ele>46.149911</ele>
        <time>2022-10-18T13:53:02.225Z</time>
      </trkpt>
      <trkpt lat="46.43941" lon="-1.63377">
        <ele>46.037071</ele>
        <time>2022-10-18T13:53:11.290Z</time>
      </trkpt>
      <trkpt lat="46.43931" lon="-1.63375">
        <ele>45.927849</ele>
        <time>2022-10-18T13:53:20.243Z</time>
      </trkpt>
      <trkpt lat="46.43922" lon="-1.63374">
        <ele>45.818911</ele>
        <time>2022-10-18T13:53:32.268Z</time>
      </trkpt>
      <trkpt lat="46.43909" lon="-1.63381">
        <ele>45.657916</ele>
        <time>2022-10-18T13:54:07.252Z</time>
      </trkpt>
      <trkpt lat="46.43902" lon="-1.63391">
        <ele>45.436652</ele>
        <time>2022-10-18T13:54:18.184Z</time>
      </trkpt>
      <trkpt lat="46.43898" lon="-1.63403">
        <ele>45.219566</ele>
        <time>2022-10-18T13:54:27.279Z</time>
      </trkpt>
      <trkpt lat="46.43896" lon="-1.63417">
        <ele>44.986324</ele>
        <time>2022-10-18T13:54:37.279Z</time>
      </trkpt>
      <trkpt lat="46.43892" lon="-1.6343">
        <ele>44.770398</ele>
        <time>2022-10-18T13:54:46.294Z</time>
      </trkpt>
      <trkpt lat="46.43888" lon="-1.63442">
        <ele>44.555937</ele>
        <time>2022-10-18T13:54:56.270Z</time>
      </trkpt>
      <trkpt lat="46.43885" lon="-1.63454">
        <ele>44.344401</ele>
        <time>2022-10-18T13:55:04.276Z</time>
      </trkpt>
      <trkpt lat="46.43882" lon="-1.63466">
        <ele>44.135152</ele>
        <time>2022-10-18T13:55:13.196Z</time>
      </trkpt>
      <trkpt lat="46.43879" lon="-1.6348">
        <ele>43.911158</ele>
        <time>2022-10-18T13:55:22.280Z</time>
      </trkpt>
      <trkpt lat="46.43875" lon="-1.63492">
        <ele>43.694299</ele>
        <time>2022-10-18T13:55:30.286Z</time>
      </trkpt>
      <trkpt lat="46.43869" lon="-1.63505">
        <ele>43.454791</ele>
        <time>2022-10-18T13:55:40.228Z</time>
      </trkpt>
      <trkpt lat="46.43863" lon="-1.63515">
        <ele>43.236554</ele>
        <time>2022-10-18T13:55:48.269Z</time>
      </trkpt>
      <trkpt lat="46.43856" lon="-1.63523">
        <ele>43.012211</ele>
        <time>2022-10-18T13:55:56.275Z</time>
      </trkpt>
      <trkpt lat="46.43849" lon="-1.63533">
        <ele>42.787714</ele>
        <time>2022-10-18T13:56:05.290Z</time>
      </trkpt>
      <trkpt lat="46.43841" lon="-1.63542">
        <ele>42.565859</ele>
        <time>2022-10-18T13:56:14.251Z</time>
      </trkpt>
      <trkpt lat="46.43834" lon="-1.63552">
        <ele>42.338856</ele>
        <time>2022-10-18T13:56:23.286Z</time>
      </trkpt>
      <trkpt lat="46.43826" lon="-1.63561">
        <ele>42.105957</ele>
        <time>2022-10-18T13:56:31.262Z</time>
      </trkpt>
      <trkpt lat="46.43819" lon="-1.63569">
        <ele>41.895739</ele>
        <time>2022-10-18T13:56:39.279Z</time>
      </trkpt>
      <trkpt lat="46.43813" lon="-1.63579">
        <ele>41.682295</ele>
        <time>2022-10-18T13:56:48.233Z</time>
      </trkpt>
      <trkpt lat="46.43805" lon="-1.63587">
        <ele>41.481621</ele>
        <time>2022-10-18T13:56:56.268Z</time>
      </trkpt>
      <trkpt lat="46.43796" lon="-1.63581">
        <ele>41.365697</ele>
        <time>2022-10-18T13:57:05.271Z</time>
      </trkpt>
      <trkpt lat="46.43791" lon="-1.63569">
        <ele>41.251496</ele>
        <time>2022-10-18T13:57:13.266Z</time>
      </trkpt>
      <trkpt lat="46.43786" lon="-1.63558">
        <ele>41.145019</ele>
        <time>2022-10-18T13:57:23.250Z</time>
      </trkpt>
      <trkpt lat="46.43777" lon="-1.63556">
        <ele>41.032091</ele>
        <time>2022-10-18T13:57:32.278Z</time>
      </trkpt>
      <trkpt lat="46.43767" lon="-1.6356">
        <ele>40.915494</ele>
        <time>2022-10-18T13:57:41.294Z</time>
      </trkpt>
      <trkpt lat="46.43758" lon="-1.63562">
        <ele>40.804378</ele>
        <time>2022-10-18T13:57:50.290Z</time>
      </trkpt>
      <trkpt lat="46.43749" lon="-1.63557">
        <ele>40.693799</ele>
        <time>2022-10-18T13:58:00.254Z</time>
      </trkpt>
      <trkpt lat="46.43745" lon="-1.63544">
        <ele>40.581733</ele>
        <time>2022-10-18T13:58:09.253Z</time>
      </trkpt>
      <trkpt lat="46.43742" lon="-1.63532">
        <ele>40.476846</ele>
        <time>2022-10-18T13:58:17.284Z</time>
      </trkpt>
      <trkpt lat="46.43738" lon="-1.63519">
        <ele>40.359386</ele>
        <time>2022-10-18T13:58:25.285Z</time>
      </trkpt>
      <trkpt lat="46.43735" lon="-1.63506">
        <ele>40.254221</ele>
        <time>2022-10-18T13:58:32.269Z</time>
      </trkpt>
      <trkpt lat="46.43732" lon="-1.63493">
        <ele>40.140588</ele>
        <time>2022-10-18T13:58:40.269Z</time>
      </trkpt>
      <trkpt lat="46.43729" lon="-1.63479">
        <ele>40.023231</ele>
        <time>2022-10-18T13:58:50.281Z</time>
      </trkpt>
      <trkpt lat="46.43726" lon="-1.63465">
        <ele>39.907366</ele>
        <time>2022-10-18T13:58:59.278Z</time>
      </trkpt>
      <trkpt lat="46.43723" lon="-1.63452">
        <ele>39.79793</ele>
        <time>2022-10-18T13:59:07.255Z</time>
      </trkpt>
      <trkpt lat="46.43719" lon="-1.63439">
        <ele>39.680918</ele>
        <time>2022-10-18T13:59:16.282Z</time>
      </trkpt>
      <trkpt lat="46.43716" lon="-1.63426">
        <ele>39.566806</ele>
        <time>2022-10-18T13:59:25.289Z</time>
      </trkpt>
      <trkpt lat="46.43713" lon="-1.63413">
        <ele>39.458475</ele>
        <time>2022-10-18T13:59:33.296Z</time>
      </trkpt>
      <trkpt lat="46.4371" lon="-1.63399">
        <ele>39.407563</ele>
        <time>2022-10-18T13:59:43.248Z</time>
      </trkpt>
      <trkpt lat="46.43703" lon="-1.6339">
        <ele>39.438024</ele>
        <time>2022-10-18T13:59:52.292Z</time>
      </trkpt>
      <trkpt lat="46.43694" lon="-1.63392">
        <ele>39.470386</ele>
        <time>2022-10-18T14:00:02.276Z</time>
      </trkpt>
      <trkpt lat="46.43685" lon="-1.63396">
        <ele>39.500876</ele>
        <time>2022-10-18T14:00:11.301Z</time>
      </trkpt>
      <trkpt lat="46.43675" lon="-1.634">
        <ele>39.533747</ele>
        <time>2022-10-18T14:00:20.265Z</time>
      </trkpt>
      <trkpt lat="46.43666" lon="-1.63402">
        <ele>39.564355</ele>
        <time>2022-10-18T14:00:28.262Z</time>
      </trkpt>
      <trkpt lat="46.43657" lon="-1.63404">
        <ele>39.594848</ele>
        <time>2022-10-18T14:00:36.222Z</time>
      </trkpt>
      <trkpt lat="46.43649" lon="-1.63408">
        <ele>39.624804</ele>
        <time>2022-10-18T14:00:45.257Z</time>
      </trkpt>
      <trkpt lat="46.43639" lon="-1.63415">
        <ele>39.658667</ele>
        <time>2022-10-18T14:00:54.279Z</time>
      </trkpt>
      <trkpt lat="46.43631" lon="-1.63418">
        <ele>39.688924</ele>
        <time>2022-10-18T14:01:02.261Z</time>
      </trkpt>
      <trkpt lat="46.43622" lon="-1.63423">
        <ele>39.719727</ele>
        <time>2022-10-18T14:01:10.240Z</time>
      </trkpt>
      <trkpt lat="46.43613" lon="-1.63427">
        <ele>39.750992</ele>
        <time>2022-10-18T14:01:18.265Z</time>
      </trkpt>
      <trkpt lat="46.43604" lon="-1.63433">
        <ele>39.783135</ele>
        <time>2022-10-18T14:01:27.252Z</time>
      </trkpt>
      <trkpt lat="46.43595" lon="-1.63438">
        <ele>39.816063</ele>
        <time>2022-10-18T14:01:36.293Z</time>
      </trkpt>
      <trkpt lat="46.43585" lon="-1.63442">
        <ele>39.849312</ele>
        <time>2022-10-18T14:01:45.277Z</time>
      </trkpt>
      <trkpt lat="46.43576" lon="-1.63448">
        <ele>39.880232</ele>
        <time>2022-10-18T14:01:54.275Z</time>
      </trkpt>
      <trkpt lat="46.43567" lon="-1.63454">
        <ele>39.912821</ele>
        <time>2022-10-18T14:02:05.284Z</time>
      </trkpt>
      <trkpt lat="46.43558" lon="-1.63458">
        <ele>39.944493</ele>
        <time>2022-10-18T14:02:15.286Z</time>
      </trkpt>
      <trkpt lat="46.4355" lon="-1.63462">
        <ele>39.975149</ele>
        <time>2022-10-18T14:02:23.232Z</time>
      </trkpt>
      <trkpt lat="46.43541" lon="-1.63468">
        <ele>39.970477</ele>
        <time>2022-10-18T14:02:31.262Z</time>
      </trkpt>
      <trkpt lat="46.43532" lon="-1.6347">
        <ele>39.938161</ele>
        <time>2022-10-18T14:02:39.277Z</time>
      </trkpt>
      <trkpt lat="46.43522" lon="-1.63473">
        <ele>39.903456</ele>
        <time>2022-10-18T14:02:49.195Z</time>
      </trkpt>
      <trkpt lat="46.43513" lon="-1.63477">
        <ele>39.871407</ele>
        <time>2022-10-18T14:02:58.244Z</time>
      </trkpt>
      <trkpt lat="46.43504" lon="-1.63481">
        <ele>39.837483</ele>
        <time>2022-10-18T14:03:07.285Z</time>
      </trkpt>
      <trkpt lat="46.43495" lon="-1.63484">
        <ele>39.805493</ele>
        <time>2022-10-18T14:03:15.262Z</time>
      </trkpt>
      <trkpt lat="46.43486" lon="-1.63489">
        <ele>39.772376</ele>
        <time>2022-10-18T14:03:23.256Z</time>
      </trkpt>
      <trkpt lat="46.43477" lon="-1.63493">
        <ele>39.740561</ele>
        <time>2022-10-18T14:03:32.260Z</time>
      </trkpt>
      <trkpt lat="46.43468" lon="-1.63496">
        <ele>39.708331</ele>
        <time>2022-10-18T14:03:41.297Z</time>
      </trkpt>
      <trkpt lat="46.4346" lon="-1.635">
        <ele>39.676935</ele>
        <time>2022-10-18T14:03:50.290Z</time>
      </trkpt>
      <trkpt lat="46.43451" lon="-1.63506">
        <ele>39.64291</ele>
        <time>2022-10-18T14:03:59.262Z</time>
      </trkpt>
      <trkpt lat="46.43442" lon="-1.63508">
        <ele>39.610773</ele>
        <time>2022-10-18T14:04:09.183Z</time>
      </trkpt>
      <trkpt lat="46.43434" lon="-1.63501">
        <ele>39.578694</ele>
        <time>2022-10-18T14:04:19.270Z</time>
      </trkpt>
      <trkpt lat="46.43428" lon="-1.63489">
        <ele>39.544201</ele>
        <time>2022-10-18T14:04:30.287Z</time>
      </trkpt>
      <trkpt lat="46.43424" lon="-1.63477">
        <ele>39.51131</ele>
        <time>2022-10-18T14:04:39.235Z</time>
      </trkpt>
      <trkpt lat="46.43418" lon="-1.63465">
        <ele>39.476653</ele>
        <time>2022-10-18T14:04:48.253Z</time>
      </trkpt>
      <trkpt lat="46.43414" lon="-1.63453">
        <ele>39.445142</ele>
        <time>2022-10-18T14:04:57.267Z</time>
      </trkpt>
      <trkpt lat="46.43411" lon="-1.6344">
        <ele>39.412032</ele>
        <time>2022-10-18T14:05:07.199Z</time>
      </trkpt>
      <trkpt lat="46.43407" lon="-1.63427">
        <ele>39.37902</ele>
        <time>2022-10-18T14:05:15.292Z</time>
      </trkpt>
      <trkpt lat="46.43405" lon="-1.63414">
        <ele>39.476157</ele>
        <time>2022-10-18T14:05:24.257Z</time>
      </trkpt>
      <trkpt lat="46.43399" lon="-1.63403">
        <ele>39.690945</ele>
        <time>2022-10-18T14:05:32.273Z</time>
      </trkpt>
      <trkpt lat="46.43394" lon="-1.6339">
        <ele>39.913208</ele>
        <time>2022-10-18T14:05:40.286Z</time>
      </trkpt>
      <trkpt lat="46.43392" lon="-1.63377">
        <ele>40.117081</ele>
        <time>2022-10-18T14:05:48.284Z</time>
      </trkpt>
      <trkpt lat="46.4339" lon="-1.63363">
        <ele>40.328097</ele>
        <time>2022-10-18T14:05:55.264Z</time>
      </trkpt>
      <trkpt lat="46.43387" lon="-1.6335">
        <ele>40.534481</ele>
        <time>2022-10-18T14:06:03.310Z</time>
      </trkpt>
      <trkpt lat="46.43384" lon="-1.63337">
        <ele>40.747327</ele>
        <time>2022-10-18T14:06:12.273Z</time>
      </trkpt>
      <trkpt lat="46.43382" lon="-1.63324">
        <ele>40.945824</ele>
        <time>2022-10-18T14:06:21.217Z</time>
      </trkpt>
      <trkpt lat="46.43379" lon="-1.6331">
        <ele>41.167073</ele>
        <time>2022-10-18T14:06:29.284Z</time>
      </trkpt>
      <trkpt lat="46.43378" lon="-1.63297">
        <ele>41.37322</ele>
        <time>2022-10-18T14:06:37.282Z</time>
      </trkpt>
      <trkpt lat="46.43375" lon="-1.63283">
        <ele>41.590079</ele>
        <time>2022-10-18T14:06:46.270Z</time>
      </trkpt>
      <trkpt lat="46.43372" lon="-1.6327">
        <ele>41.793583</ele>
        <time>2022-10-18T14:06:54.263Z</time>
      </trkpt>
      <trkpt lat="46.4337" lon="-1.63257">
        <ele>41.999967</ele>
        <time>2022-10-18T14:07:04.286Z</time>
      </trkpt>
      <trkpt lat="46.43367" lon="-1.63243">
        <ele>42.220757</ele>
        <time>2022-10-18T14:07:14.283Z</time>
      </trkpt>
      <trkpt lat="46.43364" lon="-1.63225">
        <ele>42.501475</ele>
        <time>2022-10-18T14:10:15.263Z</time>
      </trkpt>
      <trkpt lat="46.43359" lon="-1.63213">
        <ele>42.713891</ele>
        <time>2022-10-18T14:10:30.213Z</time>
      </trkpt>
      <trkpt lat="46.43359" lon="-1.63199">
        <ele>42.926209</ele>
        <time>2022-10-18T14:10:38.180Z</time>
      </trkpt>
      <trkpt lat="46.43359" lon="-1.63186">
        <ele>43.130858</ele>
        <time>2022-10-18T14:10:46.184Z</time>
      </trkpt>
      <trkpt lat="46.43356" lon="-1.63173">
        <ele>43.322123</ele>
        <time>2022-10-18T14:10:53.206Z</time>
      </trkpt>
      <trkpt lat="46.43354" lon="-1.63158">
        <ele>43.348477</ele>
        <time>2022-10-18T14:11:01.203Z</time>
      </trkpt>
      <trkpt lat="46.43352" lon="-1.63145">
        <ele>43.373133</ele>
        <time>2022-10-18T14:11:09.205Z</time>
      </trkpt>
      <trkpt lat="46.4335" lon="-1.63131">
        <ele>43.398422</ele>
        <time>2022-10-18T14:11:18.214Z</time>
      </trkpt>
      <trkpt lat="46.43349" lon="-1.63117">
        <ele>43.422955</ele>
        <time>2022-10-18T14:11:27.160Z</time>
      </trkpt>
      <trkpt lat="46.43345" lon="-1.63105">
        <ele>43.447148</ele>
        <time>2022-10-18T14:11:36.229Z</time>
      </trkpt>
      <trkpt lat="46.43336" lon="-1.63098">
        <ele>43.47233</ele>
        <time>2022-10-18T14:11:44.199Z</time>
      </trkpt>
      <trkpt lat="46.43327" lon="-1.63097">
        <ele>43.496313</ele>
        <time>2022-10-18T14:11:53.193Z</time>
      </trkpt>
      <trkpt lat="46.4332" lon="-1.63106">
        <ele>43.520426</ele>
        <time>2022-10-18T14:12:24.215Z</time>
      </trkpt>
      <trkpt lat="46.43313" lon="-1.63115">
        <ele>43.543899</ele>
        <time>2022-10-18T14:12:44.176Z</time>
      </trkpt>
      <trkpt lat="46.43304" lon="-1.63109">
        <ele>43.570778</ele>
        <time>2022-10-18T14:12:57.181Z</time>
      </trkpt>
      <trkpt lat="46.43304" lon="-1.63122">
        <ele>43.595133</ele>
        <time>2022-10-18T14:13:23.169Z</time>
      </trkpt>
      <trkpt lat="46.43296" lon="-1.63129">
        <ele>43.618686</ele>
        <time>2022-10-18T14:13:32.189Z</time>
      </trkpt>
      <trkpt lat="46.43288" lon="-1.63138">
        <ele>43.643938</ele>
        <time>2022-10-18T14:13:41.184Z</time>
      </trkpt>
      <trkpt lat="46.4328" lon="-1.63144">
        <ele>43.667398</ele>
        <time>2022-10-18T14:13:48.214Z</time>
      </trkpt>
      <trkpt lat="46.43271" lon="-1.6315">
        <ele>43.692408</ele>
        <time>2022-10-18T14:13:58.172Z</time>
      </trkpt>
      <trkpt lat="46.43263" lon="-1.63156">
        <ele>43.716952</ele>
        <time>2022-10-18T14:14:06.156Z</time>
      </trkpt>
      <trkpt lat="46.43254" lon="-1.63163">
        <ele>43.743181</ele>
        <time>2022-10-18T14:14:13.172Z</time>
      </trkpt>
      <trkpt lat="46.43244" lon="-1.63165">
        <ele>43.768648</ele>
        <time>2022-10-18T14:14:21.178Z</time>
      </trkpt>
      <trkpt lat="46.43235" lon="-1.63168">
        <ele>43.764543</ele>
        <time>2022-10-18T14:14:29.172Z</time>
      </trkpt>
      <trkpt lat="46.43226" lon="-1.63173">
        <ele>43.713875</ele>
        <time>2022-10-18T14:14:37.178Z</time>
      </trkpt>
      <trkpt lat="46.43219" lon="-1.63182">
        <ele>43.661132</ele>
        <time>2022-10-18T14:15:01.190Z</time>
      </trkpt>
      <trkpt lat="46.43215" lon="-1.63195">
        <ele>43.610884</ele>
        <time>2022-10-18T14:15:09.176Z</time>
      </trkpt>
      <trkpt lat="46.43213" lon="-1.63208">
        <ele>43.560431</ele>
        <time>2022-10-18T14:15:17.166Z</time>
      </trkpt>
      <trkpt lat="46.43211" lon="-1.63221">
        <ele>43.509859</ele>
        <time>2022-10-18T14:15:24.171Z</time>
      </trkpt>
      <trkpt lat="46.4321" lon="-1.63236">
        <ele>43.455515</ele>
        <time>2022-10-18T14:15:33.165Z</time>
      </trkpt>
      <trkpt lat="46.43211" lon="-1.6325">
        <ele>43.400338</ele>
        <time>2022-10-18T14:15:43.174Z</time>
      </trkpt>
      <trkpt lat="46.43212" lon="-1.63264">
        <ele>43.350008</ele>
        <time>2022-10-18T14:15:51.173Z</time>
      </trkpt>
      <trkpt lat="46.43212" lon="-1.63278">
        <ele>43.294532</ele>
        <time>2022-10-18T14:16:00.165Z</time>
      </trkpt>
      <trkpt lat="46.43212" lon="-1.63292">
        <ele>43.244379</ele>
        <time>2022-10-18T14:16:07.155Z</time>
      </trkpt>
      <trkpt lat="46.43212" lon="-1.63306">
        <ele>43.192367</ele>
        <time>2022-10-18T14:16:15.159Z</time>
      </trkpt>
      <trkpt lat="46.43214" lon="-1.6332">
        <ele>43.1374</ele>
        <time>2022-10-18T14:16:25.196Z</time>
      </trkpt>
      <trkpt lat="46.43217" lon="-1.63333">
        <ele>43.087668</ele>
        <time>2022-10-18T14:16:32.166Z</time>
      </trkpt>
      <trkpt lat="46.43219" lon="-1.63347">
        <ele>43.032262</ele>
        <time>2022-10-18T14:16:41.163Z</time>
      </trkpt>
      <trkpt lat="46.43218" lon="-1.63361">
        <ele>42.980204</ele>
        <time>2022-10-18T14:16:51.194Z</time>
      </trkpt>
      <trkpt lat="46.43217" lon="-1.63375">
        <ele>42.93057</ele>
        <time>2022-10-18T14:16:59.165Z</time>
      </trkpt>
      <trkpt lat="46.43217" lon="-1.63389">
        <ele>42.87741</ele>
        <time>2022-10-18T14:17:06.163Z</time>
      </trkpt>
      <trkpt lat="46.43219" lon="-1.63402">
        <ele>42.827551</ele>
        <time>2022-10-18T14:17:15.177Z</time>
      </trkpt>
      <trkpt lat="46.4322" lon="-1.63416">
        <ele>42.807677</ele>
        <time>2022-10-18T14:17:23.179Z</time>
      </trkpt>
      <trkpt lat="46.43221" lon="-1.6343">
        <ele>42.807677</ele>
        <time>2022-10-18T14:17:31.180Z</time>
      </trkpt>
      <trkpt lat="46.43219" lon="-1.63444">
        <ele>42.807677</ele>
        <time>2022-10-18T14:17:39.163Z</time>
      </trkpt>
      <trkpt lat="46.43221" lon="-1.63458">
        <ele>42.807677</ele>
        <time>2022-10-18T14:17:47.194Z</time>
      </trkpt>
      <trkpt lat="46.43223" lon="-1.63473">
        <ele>42.807677</ele>
        <time>2022-10-18T14:17:55.209Z</time>
      </trkpt>
      <trkpt lat="46.43225" lon="-1.63487">
        <ele>42.807677</ele>
        <time>2022-10-18T14:18:02.256Z</time>
      </trkpt>
      <trkpt lat="46.43226" lon="-1.63501">
        <ele>42.807677</ele>
        <time>2022-10-18T14:18:11.236Z</time>
      </trkpt>
      <trkpt lat="46.43227" lon="-1.63516">
        <ele>42.807677</ele>
        <time>2022-10-18T14:18:20.190Z</time>
      </trkpt>
      <trkpt lat="46.43228" lon="-1.6353">
        <ele>42.807677</ele>
        <time>2022-10-18T14:18:30.280Z</time>
      </trkpt>
      <trkpt lat="46.43229" lon="-1.63543">
        <ele>42.807677</ele>
        <time>2022-10-18T14:18:39.250Z</time>
      </trkpt>
      <trkpt lat="46.43231" lon="-1.63556">
        <ele>42.807677</ele>
        <time>2022-10-18T14:18:49.265Z</time>
      </trkpt>
      <trkpt lat="46.43238" lon="-1.63566">
        <ele>42.807677</ele>
        <time>2022-10-18T14:18:59.247Z</time>
      </trkpt>
      <trkpt lat="46.4324" lon="-1.6358">
        <ele>42.807677</ele>
        <time>2022-10-18T14:19:08.213Z</time>
      </trkpt>
      <trkpt lat="46.43243" lon="-1.63606">
        <ele>42.807677</ele>
        <time>2022-10-18T14:19:49.268Z</time>
      </trkpt>
      <trkpt lat="46.43242" lon="-1.63619">
        <ele>42.807677</ele>
        <time>2022-10-18T14:19:57.257Z</time>
      </trkpt>
      <trkpt lat="46.43243" lon="-1.63632">
        <ele>42.807677</ele>
        <time>2022-10-18T14:20:06.185Z</time>
      </trkpt>
      <trkpt lat="46.43244" lon="-1.63646">
        <ele>42.807677</ele>
        <time>2022-10-18T14:20:15.185Z</time>
        <extensions>
          <visugpx:TrkExtension xmlns:visugpx="https://www.visugpx.com/editgpx/">
            <visugpx:node>3</visugpx:node>
            </visugpx:TrkExtension>
        </extensions>
      </trkpt>
    </trkseg>
  </trk>
</gpx>